<?xml version="1.0" encoding="UTF-8" standalone="no" ?>
<gpx xmlns="http://www.topografix.com/GPX/1/1" xmlns:xsi="http://www.w3.org/2001/XMLSchema-instance" xsi:schemaLocation="http://www.topografix.com/GPX/1/1 http://www.topografix.com/GPX/1/1/gpx.xsd" version="1.1" creator="VisuGPX - https://www.visugpx.com">
  <metadata>
    <name>Pic du Montaigu</name>
    <desc><![CDATA[Départ du parking (1135m) de la piste forestière du Hourc, au dessus de la route qui mène au Chiroulet.
Erreur de parcours entre le col de Tos et le sommet (altitude 2080m), je suis parti trop à droite et j'ai dû remonter pleine pente pour récupérer l'itinéraire.
Alors qu'il faut suivre la ligne de crête comme je l'ai fait à la descente.]]></desc>
  </metadata>
  <trk>
    <name><![CDATA[Pic du Montaigu]]></name>
    <trkseg>
      <trkpt lat="42.99173" lon="0.09548">
        <ele>1131.8</ele>
        <time>2018-11-15T08:34:48Z</time>
      </trkpt>
      <trkpt lat="42.99173" lon="0.09548">
        <ele>1131.9</ele>
        <time>2018-11-15T08:34:49Z</time>
      </trkpt>
      <trkpt lat="42.99188" lon="0.0954">
        <ele>1143.3</ele>
        <time>2018-11-15T08:36:09Z</time>
      </trkpt>
      <trkpt lat="42.99188" lon="0.0954">
        <ele>1143.4</ele>
        <time>2018-11-15T08:36:10Z</time>
      </trkpt>
      <trkpt lat="42.99195" lon="0.0952">
        <ele>1143.2</ele>
        <time>2018-11-15T08:36:38Z</time>
      </trkpt>
      <trkpt lat="42.99191" lon="0.09531">
        <ele>1142.5</ele>
        <time>2018-11-15T08:36:53Z</time>
      </trkpt>
      <trkpt lat="42.99189" lon="0.09519">
        <ele>1143.1</ele>
        <time>2018-11-15T08:37:22Z</time>
      </trkpt>
      <trkpt lat="42.99189" lon="0.09518">
        <ele>1143.1</ele>
        <time>2018-11-15T08:37:23Z</time>
      </trkpt>
      <trkpt lat="42.99191" lon="0.09496">
        <ele>1146.7</ele>
        <time>2018-11-15T08:37:42Z</time>
      </trkpt>
      <trkpt lat="42.99192" lon="0.09484">
        <ele>1149.2</ele>
        <time>2018-11-15T08:37:53Z</time>
      </trkpt>
      <trkpt lat="42.9919" lon="0.09473">
        <ele>1149.8</ele>
        <time>2018-11-15T08:38:02Z</time>
      </trkpt>
      <trkpt lat="42.99186" lon="0.09463">
        <ele>1151.7</ele>
        <time>2018-11-15T08:38:12Z</time>
      </trkpt>
      <trkpt lat="42.99183" lon="0.09452">
        <ele>1153.8</ele>
        <time>2018-11-15T08:38:24Z</time>
      </trkpt>
      <trkpt lat="42.99183" lon="0.09451">
        <ele>1153.9</ele>
        <time>2018-11-15T08:38:25Z</time>
      </trkpt>
      <trkpt lat="42.9918" lon="0.09429">
        <ele>1158.1</ele>
        <time>2018-11-15T08:38:50Z</time>
      </trkpt>
      <trkpt lat="42.99179" lon="0.09417">
        <ele>1160.5</ele>
        <time>2018-11-15T08:39:03Z</time>
      </trkpt>
      <trkpt lat="42.99176" lon="0.09406">
        <ele>1161.9</ele>
        <time>2018-11-15T08:39:14Z</time>
      </trkpt>
      <trkpt lat="42.99171" lon="0.09396">
        <ele>1165.1</ele>
        <time>2018-11-15T08:39:25Z</time>
      </trkpt>
      <trkpt lat="42.99171" lon="0.09396">
        <ele>1165</ele>
        <time>2018-11-15T08:39:26Z</time>
      </trkpt>
      <trkpt lat="42.99165" lon="0.09375">
        <ele>1170</ele>
        <time>2018-11-15T08:39:50Z</time>
      </trkpt>
      <trkpt lat="42.99166" lon="0.09364">
        <ele>1172.5</ele>
        <time>2018-11-15T08:40:02Z</time>
      </trkpt>
      <trkpt lat="42.99168" lon="0.09352">
        <ele>1175.6</ele>
        <time>2018-11-15T08:40:13Z</time>
      </trkpt>
      <trkpt lat="42.99168" lon="0.09341">
        <ele>1176.4</ele>
        <time>2018-11-15T08:40:25Z</time>
      </trkpt>
      <trkpt lat="42.99169" lon="0.0933">
        <ele>1178.2</ele>
        <time>2018-11-15T08:40:34Z</time>
      </trkpt>
      <trkpt lat="42.99169" lon="0.09329">
        <ele>1178.6</ele>
        <time>2018-11-15T08:40:35Z</time>
      </trkpt>
      <trkpt lat="42.99172" lon="0.09308">
        <ele>1181.9</ele>
        <time>2018-11-15T08:40:51Z</time>
      </trkpt>
      <trkpt lat="42.99174" lon="0.09296">
        <ele>1184.8</ele>
        <time>2018-11-15T08:41:02Z</time>
      </trkpt>
      <trkpt lat="42.99175" lon="0.09284">
        <ele>1185.2</ele>
        <time>2018-11-15T08:41:12Z</time>
      </trkpt>
      <trkpt lat="42.99177" lon="0.09273">
        <ele>1188.8</ele>
        <time>2018-11-15T08:41:22Z</time>
      </trkpt>
      <trkpt lat="42.99181" lon="0.09263">
        <ele>1190.7</ele>
        <time>2018-11-15T08:41:31Z</time>
      </trkpt>
      <trkpt lat="42.99181" lon="0.09251">
        <ele>1193.2</ele>
        <time>2018-11-15T08:41:46Z</time>
      </trkpt>
      <trkpt lat="42.99181" lon="0.0925">
        <ele>1193.4</ele>
        <time>2018-11-15T08:41:47Z</time>
      </trkpt>
      <trkpt lat="42.99187" lon="0.0923">
        <ele>1196.3</ele>
        <time>2018-11-15T08:42:05Z</time>
      </trkpt>
      <trkpt lat="42.99191" lon="0.09219">
        <ele>1196.9</ele>
        <time>2018-11-15T08:42:13Z</time>
      </trkpt>
      <trkpt lat="42.99192" lon="0.09208">
        <ele>1199.4</ele>
        <time>2018-11-15T08:42:22Z</time>
      </trkpt>
      <trkpt lat="42.99192" lon="0.09196">
        <ele>1200.7</ele>
        <time>2018-11-15T08:42:32Z</time>
      </trkpt>
      <trkpt lat="42.99193" lon="0.09184">
        <ele>1203.2</ele>
        <time>2018-11-15T08:42:44Z</time>
      </trkpt>
      <trkpt lat="42.99192" lon="0.09173">
        <ele>1206</ele>
        <time>2018-11-15T08:42:55Z</time>
      </trkpt>
      <trkpt lat="42.99192" lon="0.09171">
        <ele>1206.5</ele>
        <time>2018-11-15T08:42:56Z</time>
      </trkpt>
      <trkpt lat="42.99188" lon="0.0915">
        <ele>1211</ele>
        <time>2018-11-15T08:43:16Z</time>
      </trkpt>
      <trkpt lat="42.99185" lon="0.09139">
        <ele>1213.2</ele>
        <time>2018-11-15T08:43:27Z</time>
      </trkpt>
      <trkpt lat="42.99181" lon="0.09128">
        <ele>1216.5</ele>
        <time>2018-11-15T08:43:42Z</time>
      </trkpt>
      <trkpt lat="42.9918" lon="0.09116">
        <ele>1217.3</ele>
        <time>2018-11-15T08:43:52Z</time>
      </trkpt>
      <trkpt lat="42.99182" lon="0.09105">
        <ele>1218.8</ele>
        <time>2018-11-15T08:44:01Z</time>
      </trkpt>
      <trkpt lat="42.99182" lon="0.09103">
        <ele>1219</ele>
        <time>2018-11-15T08:44:02Z</time>
      </trkpt>
      <trkpt lat="42.99185" lon="0.09083">
        <ele>1220</ele>
        <time>2018-11-15T08:44:17Z</time>
      </trkpt>
      <trkpt lat="42.99189" lon="0.09073">
        <ele>1219.7</ele>
        <time>2018-11-15T08:44:24Z</time>
      </trkpt>
      <trkpt lat="42.99191" lon="0.09061">
        <ele>1222.1</ele>
        <time>2018-11-15T08:44:35Z</time>
      </trkpt>
      <trkpt lat="42.99193" lon="0.0905">
        <ele>1223.3</ele>
        <time>2018-11-15T08:44:46Z</time>
      </trkpt>
      <trkpt lat="42.99195" lon="0.09039">
        <ele>1226</ele>
        <time>2018-11-15T08:45:02Z</time>
      </trkpt>
      <trkpt lat="42.99195" lon="0.09038">
        <ele>1225.9</ele>
        <time>2018-11-15T08:45:03Z</time>
      </trkpt>
      <trkpt lat="42.99203" lon="0.0902">
        <ele>1227.8</ele>
        <time>2018-11-15T08:45:20Z</time>
      </trkpt>
      <trkpt lat="42.99208" lon="0.09009">
        <ele>1228.7</ele>
        <time>2018-11-15T08:45:28Z</time>
      </trkpt>
      <trkpt lat="42.99213" lon="0.09">
        <ele>1230.2</ele>
        <time>2018-11-15T08:45:35Z</time>
      </trkpt>
      <trkpt lat="42.99219" lon="0.08993">
        <ele>1230.6</ele>
        <time>2018-11-15T08:45:42Z</time>
      </trkpt>
      <trkpt lat="42.99225" lon="0.08986">
        <ele>1232.3</ele>
        <time>2018-11-15T08:45:52Z</time>
      </trkpt>
      <trkpt lat="42.99231" lon="0.08976">
        <ele>1233.7</ele>
        <time>2018-11-15T08:46:04Z</time>
      </trkpt>
      <trkpt lat="42.99232" lon="0.08976">
        <ele>1234.3</ele>
        <time>2018-11-15T08:46:05Z</time>
      </trkpt>
      <trkpt lat="42.9924" lon="0.08957">
        <ele>1239.3</ele>
        <time>2018-11-15T08:46:24Z</time>
      </trkpt>
      <trkpt lat="42.99245" lon="0.08948">
        <ele>1239.1</ele>
        <time>2018-11-15T08:46:31Z</time>
      </trkpt>
      <trkpt lat="42.99251" lon="0.08939">
        <ele>1239.6</ele>
        <time>2018-11-15T08:46:38Z</time>
      </trkpt>
      <trkpt lat="42.99257" lon="0.08931">
        <ele>1240.7</ele>
        <time>2018-11-15T08:46:43Z</time>
      </trkpt>
      <trkpt lat="42.99262" lon="0.08922">
        <ele>1242.9</ele>
        <time>2018-11-15T08:46:49Z</time>
      </trkpt>
      <trkpt lat="42.99266" lon="0.08911">
        <ele>1244.3</ele>
        <time>2018-11-15T08:46:59Z</time>
      </trkpt>
      <trkpt lat="42.99266" lon="0.08899">
        <ele>1246.8</ele>
        <time>2018-11-15T08:47:08Z</time>
      </trkpt>
      <trkpt lat="42.99266" lon="0.08898">
        <ele>1246.6</ele>
        <time>2018-11-15T08:47:09Z</time>
      </trkpt>
      <trkpt lat="42.99272" lon="0.08877">
        <ele>1251.8</ele>
        <time>2018-11-15T08:47:29Z</time>
      </trkpt>
      <trkpt lat="42.99273" lon="0.08865">
        <ele>1253.8</ele>
        <time>2018-11-15T08:47:39Z</time>
      </trkpt>
      <trkpt lat="42.99272" lon="0.08854">
        <ele>1256.3</ele>
        <time>2018-11-15T08:47:53Z</time>
      </trkpt>
      <trkpt lat="42.99269" lon="0.08843">
        <ele>1259.5</ele>
        <time>2018-11-15T08:48:06Z</time>
      </trkpt>
      <trkpt lat="42.99269" lon="0.08832">
        <ele>1261.5</ele>
        <time>2018-11-15T08:48:15Z</time>
      </trkpt>
      <trkpt lat="42.99269" lon="0.0883">
        <ele>1260.9</ele>
        <time>2018-11-15T08:48:16Z</time>
      </trkpt>
      <trkpt lat="42.99269" lon="0.08809">
        <ele>1262.2</ele>
        <time>2018-11-15T08:48:33Z</time>
      </trkpt>
      <trkpt lat="42.99269" lon="0.08796">
        <ele>1263.9</ele>
        <time>2018-11-15T08:48:43Z</time>
      </trkpt>
      <trkpt lat="42.99268" lon="0.08786">
        <ele>1265.2</ele>
        <time>2018-11-15T08:48:51Z</time>
      </trkpt>
      <trkpt lat="42.99272" lon="0.08776">
        <ele>1266.6</ele>
        <time>2018-11-15T08:48:58Z</time>
      </trkpt>
      <trkpt lat="42.99276" lon="0.08765">
        <ele>1267.9</ele>
        <time>2018-11-15T08:49:06Z</time>
      </trkpt>
      <trkpt lat="42.9928" lon="0.08757">
        <ele>1269.3</ele>
        <time>2018-11-15T08:49:11Z</time>
      </trkpt>
      <trkpt lat="42.99284" lon="0.08746">
        <ele>1271.3</ele>
        <time>2018-11-15T08:49:20Z</time>
      </trkpt>
      <trkpt lat="42.99284" lon="0.08745">
        <ele>1271.5</ele>
        <time>2018-11-15T08:49:21Z</time>
      </trkpt>
      <trkpt lat="42.9929" lon="0.08726">
        <ele>1270.9</ele>
        <time>2018-11-15T08:49:44Z</time>
      </trkpt>
      <trkpt lat="42.99292" lon="0.08715">
        <ele>1271.5</ele>
        <time>2018-11-15T08:49:53Z</time>
      </trkpt>
      <trkpt lat="42.99298" lon="0.08707">
        <ele>1272.6</ele>
        <time>2018-11-15T08:50:09Z</time>
      </trkpt>
      <trkpt lat="42.99307" lon="0.08704">
        <ele>1274.3</ele>
        <time>2018-11-15T08:50:30Z</time>
      </trkpt>
      <trkpt lat="42.99307" lon="0.08704">
        <ele>1274.4</ele>
        <time>2018-11-15T08:50:31Z</time>
      </trkpt>
      <trkpt lat="42.99295" lon="0.08686">
        <ele>1279.1</ele>
        <time>2018-11-15T08:50:57Z</time>
      </trkpt>
      <trkpt lat="42.99298" lon="0.08674">
        <ele>1282.2</ele>
        <time>2018-11-15T08:51:06Z</time>
      </trkpt>
      <trkpt lat="42.99302" lon="0.08665">
        <ele>1283.5</ele>
        <time>2018-11-15T08:51:16Z</time>
      </trkpt>
      <trkpt lat="42.99305" lon="0.08653">
        <ele>1285.3</ele>
        <time>2018-11-15T08:51:26Z</time>
      </trkpt>
      <trkpt lat="42.99309" lon="0.08643">
        <ele>1287.5</ele>
        <time>2018-11-15T08:51:37Z</time>
      </trkpt>
      <trkpt lat="42.9931" lon="0.08642">
        <ele>1287.5</ele>
        <time>2018-11-15T08:51:38Z</time>
      </trkpt>
      <trkpt lat="42.99316" lon="0.08622">
        <ele>1289.4</ele>
        <time>2018-11-15T08:51:53Z</time>
      </trkpt>
      <trkpt lat="42.9932" lon="0.08613">
        <ele>1289.7</ele>
        <time>2018-11-15T08:52:00Z</time>
      </trkpt>
      <trkpt lat="42.99324" lon="0.08604">
        <ele>1291.3</ele>
        <time>2018-11-15T08:52:07Z</time>
      </trkpt>
      <trkpt lat="42.99328" lon="0.08595">
        <ele>1291.6</ele>
        <time>2018-11-15T08:52:14Z</time>
      </trkpt>
      <trkpt lat="42.99332" lon="0.08585">
        <ele>1291.4</ele>
        <time>2018-11-15T08:52:21Z</time>
      </trkpt>
      <trkpt lat="42.99336" lon="0.08574">
        <ele>1292.3</ele>
        <time>2018-11-15T08:52:29Z</time>
      </trkpt>
      <trkpt lat="42.9934" lon="0.08563">
        <ele>1294.8</ele>
        <time>2018-11-15T08:52:38Z</time>
      </trkpt>
      <trkpt lat="42.9934" lon="0.08562">
        <ele>1295</ele>
        <time>2018-11-15T08:52:39Z</time>
      </trkpt>
      <trkpt lat="42.99345" lon="0.08541">
        <ele>1297.9</ele>
        <time>2018-11-15T08:52:55Z</time>
      </trkpt>
      <trkpt lat="42.99348" lon="0.0853">
        <ele>1299.6</ele>
        <time>2018-11-15T08:53:03Z</time>
      </trkpt>
      <trkpt lat="42.99353" lon="0.08521">
        <ele>1300.8</ele>
        <time>2018-11-15T08:53:11Z</time>
      </trkpt>
      <trkpt lat="42.99359" lon="0.08513">
        <ele>1302.2</ele>
        <time>2018-11-15T08:53:19Z</time>
      </trkpt>
      <trkpt lat="42.99365" lon="0.08505">
        <ele>1303.4</ele>
        <time>2018-11-15T08:53:27Z</time>
      </trkpt>
      <trkpt lat="42.99372" lon="0.08497">
        <ele>1304.7</ele>
        <time>2018-11-15T08:53:37Z</time>
      </trkpt>
      <trkpt lat="42.99381" lon="0.08497">
        <ele>1305.5</ele>
        <time>2018-11-15T08:57:45Z</time>
      </trkpt>
      <trkpt lat="42.99381" lon="0.08497">
        <ele>1305.5</ele>
        <time>2018-11-15T08:57:46Z</time>
      </trkpt>
      <trkpt lat="42.99385" lon="0.08486">
        <ele>1305.5</ele>
        <time>2018-11-15T08:59:20Z</time>
      </trkpt>
      <trkpt lat="42.99376" lon="0.0849">
        <ele>1305.7</ele>
        <time>2018-11-15T09:00:49Z</time>
      </trkpt>
      <trkpt lat="42.99385" lon="0.0847">
        <ele>1309.2</ele>
        <time>2018-11-15T09:01:28Z</time>
      </trkpt>
      <trkpt lat="42.99391" lon="0.08461">
        <ele>1311.4</ele>
        <time>2018-11-15T09:02:05Z</time>
      </trkpt>
      <trkpt lat="42.99391" lon="0.08461">
        <ele>1311.7</ele>
        <time>2018-11-15T09:02:06Z</time>
      </trkpt>
      <trkpt lat="42.99398" lon="0.08441">
        <ele>1316.6</ele>
        <time>2018-11-15T09:02:27Z</time>
      </trkpt>
      <trkpt lat="42.99402" lon="0.08431">
        <ele>1317.9</ele>
        <time>2018-11-15T09:02:41Z</time>
      </trkpt>
      <trkpt lat="42.99407" lon="0.0842">
        <ele>1321.3</ele>
        <time>2018-11-15T09:02:54Z</time>
      </trkpt>
      <trkpt lat="42.9941" lon="0.08409">
        <ele>1324.8</ele>
        <time>2018-11-15T09:03:12Z</time>
      </trkpt>
      <trkpt lat="42.99409" lon="0.08408">
        <ele>1325.1</ele>
        <time>2018-11-15T09:03:13Z</time>
      </trkpt>
      <trkpt lat="42.99419" lon="0.08389">
        <ele>1330</ele>
        <time>2018-11-15T09:03:40Z</time>
      </trkpt>
      <trkpt lat="42.99425" lon="0.08381">
        <ele>1331.1</ele>
        <time>2018-11-15T09:03:49Z</time>
      </trkpt>
      <trkpt lat="42.9943" lon="0.08371">
        <ele>1332.7</ele>
        <time>2018-11-15T09:03:59Z</time>
      </trkpt>
      <trkpt lat="42.99436" lon="0.08362">
        <ele>1333.8</ele>
        <time>2018-11-15T09:04:07Z</time>
      </trkpt>
      <trkpt lat="42.9944" lon="0.08353">
        <ele>1335.8</ele>
        <time>2018-11-15T09:04:17Z</time>
      </trkpt>
      <trkpt lat="42.99441" lon="0.08352">
        <ele>1335.9</ele>
        <time>2018-11-15T09:04:18Z</time>
      </trkpt>
      <trkpt lat="42.99451" lon="0.08336">
        <ele>1337.8</ele>
        <time>2018-11-15T09:04:38Z</time>
      </trkpt>
      <trkpt lat="42.99456" lon="0.08326">
        <ele>1338</ele>
        <time>2018-11-15T09:04:45Z</time>
      </trkpt>
      <trkpt lat="42.99461" lon="0.08317">
        <ele>1338.6</ele>
        <time>2018-11-15T09:04:52Z</time>
      </trkpt>
      <trkpt lat="42.99466" lon="0.08308">
        <ele>1339.8</ele>
        <time>2018-11-15T09:04:59Z</time>
      </trkpt>
      <trkpt lat="42.99472" lon="0.08299">
        <ele>1338.9</ele>
        <time>2018-11-15T09:05:06Z</time>
      </trkpt>
      <trkpt lat="42.99476" lon="0.08289">
        <ele>1339.1</ele>
        <time>2018-11-15T09:05:13Z</time>
      </trkpt>
      <trkpt lat="42.99481" lon="0.08279">
        <ele>1341.6</ele>
        <time>2018-11-15T09:05:21Z</time>
      </trkpt>
      <trkpt lat="42.99481" lon="0.08278">
        <ele>1341.6</ele>
        <time>2018-11-15T09:05:22Z</time>
      </trkpt>
      <trkpt lat="42.9949" lon="0.0826">
        <ele>1343.1</ele>
        <time>2018-11-15T09:05:36Z</time>
      </trkpt>
      <trkpt lat="42.99496" lon="0.08252">
        <ele>1345</ele>
        <time>2018-11-15T09:05:44Z</time>
      </trkpt>
      <trkpt lat="42.99503" lon="0.08245">
        <ele>1345.9</ele>
        <time>2018-11-15T09:05:51Z</time>
      </trkpt>
      <trkpt lat="42.99508" lon="0.08236">
        <ele>1346.8</ele>
        <time>2018-11-15T09:05:58Z</time>
      </trkpt>
      <trkpt lat="42.99514" lon="0.08229">
        <ele>1347.8</ele>
        <time>2018-11-15T09:06:05Z</time>
      </trkpt>
      <trkpt lat="42.99521" lon="0.0822">
        <ele>1349.2</ele>
        <time>2018-11-15T09:06:14Z</time>
      </trkpt>
      <trkpt lat="42.99523" lon="0.08209">
        <ele>1350.8</ele>
        <time>2018-11-15T09:06:37Z</time>
      </trkpt>
      <trkpt lat="42.99524" lon="0.08208">
        <ele>1350.9</ele>
        <time>2018-11-15T09:06:38Z</time>
      </trkpt>
      <trkpt lat="42.99531" lon="0.08188">
        <ele>1354.3</ele>
        <time>2018-11-15T09:06:59Z</time>
      </trkpt>
      <trkpt lat="42.99537" lon="0.08179">
        <ele>1356.8</ele>
        <time>2018-11-15T09:07:11Z</time>
      </trkpt>
      <trkpt lat="42.9954" lon="0.08168">
        <ele>1360.1</ele>
        <time>2018-11-15T09:07:26Z</time>
      </trkpt>
      <trkpt lat="42.99543" lon="0.08157">
        <ele>1363</ele>
        <time>2018-11-15T09:07:42Z</time>
      </trkpt>
      <trkpt lat="42.99543" lon="0.08156">
        <ele>1363.1</ele>
        <time>2018-11-15T09:07:43Z</time>
      </trkpt>
      <trkpt lat="42.99557" lon="0.08143">
        <ele>1367.2</ele>
        <time>2018-11-15T09:08:05Z</time>
      </trkpt>
      <trkpt lat="42.99563" lon="0.08134">
        <ele>1370</ele>
        <time>2018-11-15T09:08:17Z</time>
      </trkpt>
      <trkpt lat="42.9957" lon="0.08127">
        <ele>1371.4</ele>
        <time>2018-11-15T09:08:26Z</time>
      </trkpt>
      <trkpt lat="42.99573" lon="0.08116">
        <ele>1373</ele>
        <time>2018-11-15T09:08:36Z</time>
      </trkpt>
      <trkpt lat="42.99579" lon="0.08106">
        <ele>1374.9</ele>
        <time>2018-11-15T09:08:47Z</time>
      </trkpt>
      <trkpt lat="42.99579" lon="0.08105">
        <ele>1375</ele>
        <time>2018-11-15T09:08:48Z</time>
      </trkpt>
      <trkpt lat="42.99587" lon="0.08087">
        <ele>1377.8</ele>
        <time>2018-11-15T09:09:05Z</time>
      </trkpt>
      <trkpt lat="42.99591" lon="0.08077">
        <ele>1379.4</ele>
        <time>2018-11-15T09:09:14Z</time>
      </trkpt>
      <trkpt lat="42.99595" lon="0.08068">
        <ele>1380</ele>
        <time>2018-11-15T09:09:23Z</time>
      </trkpt>
      <trkpt lat="42.99599" lon="0.08057">
        <ele>1381.7</ele>
        <time>2018-11-15T09:09:32Z</time>
      </trkpt>
      <trkpt lat="42.99604" lon="0.08049">
        <ele>1382.5</ele>
        <time>2018-11-15T09:09:41Z</time>
      </trkpt>
      <trkpt lat="42.99609" lon="0.08039">
        <ele>1385.5</ele>
        <time>2018-11-15T09:09:51Z</time>
      </trkpt>
      <trkpt lat="42.99609" lon="0.08038">
        <ele>1385.6</ele>
        <time>2018-11-15T09:09:52Z</time>
      </trkpt>
      <trkpt lat="42.99618" lon="0.08019">
        <ele>1389.2</ele>
        <time>2018-11-15T09:10:12Z</time>
      </trkpt>
      <trkpt lat="42.99624" lon="0.08012">
        <ele>1392.6</ele>
        <time>2018-11-15T09:10:23Z</time>
      </trkpt>
      <trkpt lat="42.9963" lon="0.08002">
        <ele>1395.2</ele>
        <time>2018-11-15T09:10:36Z</time>
      </trkpt>
      <trkpt lat="42.99633" lon="0.07992">
        <ele>1396.3</ele>
        <time>2018-11-15T09:10:46Z</time>
      </trkpt>
      <trkpt lat="42.99638" lon="0.07982">
        <ele>1398.3</ele>
        <time>2018-11-15T09:10:55Z</time>
      </trkpt>
      <trkpt lat="42.99639" lon="0.07982">
        <ele>1398.7</ele>
        <time>2018-11-15T09:10:56Z</time>
      </trkpt>
      <trkpt lat="42.99652" lon="0.0797">
        <ele>1400.3</ele>
        <time>2018-11-15T09:11:15Z</time>
      </trkpt>
      <trkpt lat="42.99657" lon="0.07978">
        <ele>1401.1</ele>
        <time>2018-11-15T09:11:26Z</time>
      </trkpt>
      <trkpt lat="42.99659" lon="0.0799">
        <ele>1404.2</ele>
        <time>2018-11-15T09:11:40Z</time>
      </trkpt>
      <trkpt lat="42.99668" lon="0.07992">
        <ele>1407.5</ele>
        <time>2018-11-15T09:11:57Z</time>
      </trkpt>
      <trkpt lat="42.99668" lon="0.07991">
        <ele>1407.6</ele>
        <time>2018-11-15T09:11:58Z</time>
      </trkpt>
      <trkpt lat="42.99676" lon="0.07972">
        <ele>1414.5</ele>
        <time>2018-11-15T09:12:32Z</time>
      </trkpt>
      <trkpt lat="42.99682" lon="0.07963">
        <ele>1420</ele>
        <time>2018-11-15T09:12:53Z</time>
      </trkpt>
      <trkpt lat="42.99686" lon="0.07952">
        <ele>1424</ele>
        <time>2018-11-15T09:13:10Z</time>
      </trkpt>
      <trkpt lat="42.99686" lon="0.07951">
        <ele>1424.2</ele>
        <time>2018-11-15T09:13:11Z</time>
      </trkpt>
      <trkpt lat="42.9969" lon="0.07929">
        <ele>1429.6</ele>
        <time>2018-11-15T09:13:41Z</time>
      </trkpt>
      <trkpt lat="42.99686" lon="0.07919">
        <ele>1432</ele>
        <time>2018-11-15T09:13:54Z</time>
      </trkpt>
      <trkpt lat="42.99683" lon="0.07908">
        <ele>1434.3</ele>
        <time>2018-11-15T09:14:05Z</time>
      </trkpt>
      <trkpt lat="42.99682" lon="0.07897">
        <ele>1437.5</ele>
        <time>2018-11-15T09:14:16Z</time>
      </trkpt>
      <trkpt lat="42.99682" lon="0.07896">
        <ele>1438</ele>
        <time>2018-11-15T09:14:17Z</time>
      </trkpt>
      <trkpt lat="42.99679" lon="0.07874">
        <ele>1439.7</ele>
        <time>2018-11-15T09:14:38Z</time>
      </trkpt>
      <trkpt lat="42.99677" lon="0.07863">
        <ele>1441</ele>
        <time>2018-11-15T09:14:51Z</time>
      </trkpt>
      <trkpt lat="42.99677" lon="0.07851">
        <ele>1443.4</ele>
        <time>2018-11-15T09:15:02Z</time>
      </trkpt>
      <trkpt lat="42.99676" lon="0.07839">
        <ele>1443.9</ele>
        <time>2018-11-15T09:15:11Z</time>
      </trkpt>
      <trkpt lat="42.99676" lon="0.07827">
        <ele>1444.7</ele>
        <time>2018-11-15T09:15:21Z</time>
      </trkpt>
      <trkpt lat="42.99676" lon="0.07826">
        <ele>1445.1</ele>
        <time>2018-11-15T09:15:22Z</time>
      </trkpt>
      <trkpt lat="42.99678" lon="0.07805">
        <ele>1444.9</ele>
        <time>2018-11-15T09:15:40Z</time>
      </trkpt>
      <trkpt lat="42.99681" lon="0.07795">
        <ele>1447.9</ele>
        <time>2018-11-15T09:15:50Z</time>
      </trkpt>
      <trkpt lat="42.99685" lon="0.07784">
        <ele>1449</ele>
        <time>2018-11-15T09:16:01Z</time>
      </trkpt>
      <trkpt lat="42.99687" lon="0.07773">
        <ele>1453.2</ele>
        <time>2018-11-15T09:16:13Z</time>
      </trkpt>
      <trkpt lat="42.99684" lon="0.07761">
        <ele>1454.1</ele>
        <time>2018-11-15T09:16:23Z</time>
      </trkpt>
      <trkpt lat="42.99684" lon="0.0776">
        <ele>1454.3</ele>
        <time>2018-11-15T09:16:24Z</time>
      </trkpt>
      <trkpt lat="42.99682" lon="0.07738">
        <ele>1458.7</ele>
        <time>2018-11-15T09:16:47Z</time>
      </trkpt>
      <trkpt lat="42.99691" lon="0.07739">
        <ele>1464.5</ele>
        <time>2018-11-15T09:17:13Z</time>
      </trkpt>
      <trkpt lat="42.99697" lon="0.07732">
        <ele>1468.7</ele>
        <time>2018-11-15T09:17:32Z</time>
      </trkpt>
      <trkpt lat="42.99698" lon="0.07731">
        <ele>1468.9</ele>
        <time>2018-11-15T09:17:33Z</time>
      </trkpt>
      <trkpt lat="42.99704" lon="0.0771">
        <ele>1472.6</ele>
        <time>2018-11-15T09:17:52Z</time>
      </trkpt>
      <trkpt lat="42.99706" lon="0.07699">
        <ele>1475.4</ele>
        <time>2018-11-15T09:18:01Z</time>
      </trkpt>
      <trkpt lat="42.99707" lon="0.07687">
        <ele>1477.4</ele>
        <time>2018-11-15T09:18:11Z</time>
      </trkpt>
      <trkpt lat="42.99708" lon="0.07676">
        <ele>1479.9</ele>
        <time>2018-11-15T09:18:20Z</time>
      </trkpt>
      <trkpt lat="42.99708" lon="0.07664">
        <ele>1480.9</ele>
        <time>2018-11-15T09:18:31Z</time>
      </trkpt>
      <trkpt lat="42.99704" lon="0.07653">
        <ele>1483.8</ele>
        <time>2018-11-15T09:18:44Z</time>
      </trkpt>
      <trkpt lat="42.99704" lon="0.07653">
        <ele>1484.2</ele>
        <time>2018-11-15T09:18:45Z</time>
      </trkpt>
      <trkpt lat="42.99691" lon="0.07638">
        <ele>1491.6</ele>
        <time>2018-11-15T09:19:21Z</time>
      </trkpt>
      <trkpt lat="42.99686" lon="0.07628">
        <ele>1495.5</ele>
        <time>2018-11-15T09:19:43Z</time>
      </trkpt>
      <trkpt lat="42.99686" lon="0.07616">
        <ele>1499.8</ele>
        <time>2018-11-15T09:19:58Z</time>
      </trkpt>
      <trkpt lat="42.99687" lon="0.07615">
        <ele>1500.2</ele>
        <time>2018-11-15T09:19:59Z</time>
      </trkpt>
      <trkpt lat="42.99682" lon="0.07594">
        <ele>1504.3</ele>
        <time>2018-11-15T09:20:18Z</time>
      </trkpt>
      <trkpt lat="42.9968" lon="0.07583">
        <ele>1505.6</ele>
        <time>2018-11-15T09:20:27Z</time>
      </trkpt>
      <trkpt lat="42.99677" lon="0.07572">
        <ele>1508.9</ele>
        <time>2018-11-15T09:20:38Z</time>
      </trkpt>
      <trkpt lat="42.99675" lon="0.0756">
        <ele>1509.6</ele>
        <time>2018-11-15T09:20:51Z</time>
      </trkpt>
      <trkpt lat="42.99672" lon="0.07549">
        <ele>1510.7</ele>
        <time>2018-11-15T09:21:01Z</time>
      </trkpt>
      <trkpt lat="42.99672" lon="0.07548">
        <ele>1511.2</ele>
        <time>2018-11-15T09:21:02Z</time>
      </trkpt>
      <trkpt lat="42.99676" lon="0.07527">
        <ele>1517.4</ele>
        <time>2018-11-15T09:21:28Z</time>
      </trkpt>
      <trkpt lat="42.9968" lon="0.07517">
        <ele>1519.8</ele>
        <time>2018-11-15T09:21:39Z</time>
      </trkpt>
      <trkpt lat="42.99682" lon="0.07505">
        <ele>1522.8</ele>
        <time>2018-11-15T09:21:54Z</time>
      </trkpt>
      <trkpt lat="42.99679" lon="0.07494">
        <ele>1525.6</ele>
        <time>2018-11-15T09:22:08Z</time>
      </trkpt>
      <trkpt lat="42.99679" lon="0.07493">
        <ele>1525.8</ele>
        <time>2018-11-15T09:22:09Z</time>
      </trkpt>
      <trkpt lat="42.99683" lon="0.07471">
        <ele>1533.9</ele>
        <time>2018-11-15T09:22:48Z</time>
      </trkpt>
      <trkpt lat="42.9968" lon="0.0746">
        <ele>1538.7</ele>
        <time>2018-11-15T09:23:08Z</time>
      </trkpt>
      <trkpt lat="42.99676" lon="0.07449">
        <ele>1542.1</ele>
        <time>2018-11-15T09:23:25Z</time>
      </trkpt>
      <trkpt lat="42.99676" lon="0.07448">
        <ele>1542.7</ele>
        <time>2018-11-15T09:23:26Z</time>
      </trkpt>
      <trkpt lat="42.99671" lon="0.07428">
        <ele>1546.7</ele>
        <time>2018-11-15T09:23:49Z</time>
      </trkpt>
      <trkpt lat="42.99668" lon="0.07416">
        <ele>1548.3</ele>
        <time>2018-11-15T09:24:03Z</time>
      </trkpt>
      <trkpt lat="42.99668" lon="0.07404">
        <ele>1551.3</ele>
        <time>2018-11-15T09:24:18Z</time>
      </trkpt>
      <trkpt lat="42.99667" lon="0.07392">
        <ele>1553.5</ele>
        <time>2018-11-15T09:24:28Z</time>
      </trkpt>
      <trkpt lat="42.99667" lon="0.07392">
        <ele>1553.6</ele>
        <time>2018-11-15T09:24:29Z</time>
      </trkpt>
      <trkpt lat="42.99669" lon="0.0737">
        <ele>1557.5</ele>
        <time>2018-11-15T09:24:55Z</time>
      </trkpt>
      <trkpt lat="42.99668" lon="0.07358">
        <ele>1559.5</ele>
        <time>2018-11-15T09:25:08Z</time>
      </trkpt>
      <trkpt lat="42.99672" lon="0.07347">
        <ele>1561.8</ele>
        <time>2018-11-15T09:25:21Z</time>
      </trkpt>
      <trkpt lat="42.9967" lon="0.07335">
        <ele>1565.9</ele>
        <time>2018-11-15T09:25:36Z</time>
      </trkpt>
      <trkpt lat="42.99669" lon="0.07335">
        <ele>1566.1</ele>
        <time>2018-11-15T09:25:37Z</time>
      </trkpt>
      <trkpt lat="42.99665" lon="0.07315">
        <ele>1570.5</ele>
        <time>2018-11-15T09:26:03Z</time>
      </trkpt>
      <trkpt lat="42.99661" lon="0.07304">
        <ele>1574.9</ele>
        <time>2018-11-15T09:26:22Z</time>
      </trkpt>
      <trkpt lat="42.99659" lon="0.07293">
        <ele>1576.7</ele>
        <time>2018-11-15T09:26:37Z</time>
      </trkpt>
      <trkpt lat="42.99658" lon="0.07292">
        <ele>1576.9</ele>
        <time>2018-11-15T09:26:38Z</time>
      </trkpt>
      <trkpt lat="42.99653" lon="0.07271">
        <ele>1581.4</ele>
        <time>2018-11-15T09:27:00Z</time>
      </trkpt>
      <trkpt lat="42.9965" lon="0.0726">
        <ele>1582.9</ele>
        <time>2018-11-15T09:27:10Z</time>
      </trkpt>
      <trkpt lat="42.99648" lon="0.07248">
        <ele>1584.3</ele>
        <time>2018-11-15T09:27:20Z</time>
      </trkpt>
      <trkpt lat="42.99644" lon="0.07238">
        <ele>1586.8</ele>
        <time>2018-11-15T09:27:32Z</time>
      </trkpt>
      <trkpt lat="42.99645" lon="0.07227">
        <ele>1588.1</ele>
        <time>2018-11-15T09:27:43Z</time>
      </trkpt>
      <trkpt lat="42.99645" lon="0.07225">
        <ele>1588.3</ele>
        <time>2018-11-15T09:27:44Z</time>
      </trkpt>
      <trkpt lat="42.99643" lon="0.07203">
        <ele>1592.3</ele>
        <time>2018-11-15T09:28:08Z</time>
      </trkpt>
      <trkpt lat="42.99646" lon="0.07191">
        <ele>1594.3</ele>
        <time>2018-11-15T09:28:20Z</time>
      </trkpt>
      <trkpt lat="42.99646" lon="0.07179">
        <ele>1596.5</ele>
        <time>2018-11-15T09:28:33Z</time>
      </trkpt>
      <trkpt lat="42.99641" lon="0.0717">
        <ele>1597.8</ele>
        <time>2018-11-15T09:28:43Z</time>
      </trkpt>
      <trkpt lat="42.99633" lon="0.07167">
        <ele>1599.8</ele>
        <time>2018-11-15T09:29:14Z</time>
      </trkpt>
      <trkpt lat="42.99632" lon="0.07166">
        <ele>1599.9</ele>
        <time>2018-11-15T09:29:15Z</time>
      </trkpt>
      <trkpt lat="42.99617" lon="0.07157">
        <ele>1603.4</ele>
        <time>2018-11-15T09:29:36Z</time>
      </trkpt>
      <trkpt lat="42.99609" lon="0.07152">
        <ele>1604.4</ele>
        <time>2018-11-15T09:29:47Z</time>
      </trkpt>
      <trkpt lat="42.99602" lon="0.07145">
        <ele>1606.1</ele>
        <time>2018-11-15T09:29:59Z</time>
      </trkpt>
      <trkpt lat="42.99598" lon="0.07135">
        <ele>1610.6</ele>
        <time>2018-11-15T09:30:14Z</time>
      </trkpt>
      <trkpt lat="42.99592" lon="0.07126">
        <ele>1613</ele>
        <time>2018-11-15T09:30:27Z</time>
      </trkpt>
      <trkpt lat="42.99592" lon="0.07126">
        <ele>1613.3</ele>
        <time>2018-11-15T09:30:28Z</time>
      </trkpt>
      <trkpt lat="42.99576" lon="0.07121">
        <ele>1620.3</ele>
        <time>2018-11-15T09:31:00Z</time>
      </trkpt>
      <trkpt lat="42.99575" lon="0.07109">
        <ele>1621.8</ele>
        <time>2018-11-15T09:31:10Z</time>
      </trkpt>
      <trkpt lat="42.99574" lon="0.07097">
        <ele>1625</ele>
        <time>2018-11-15T09:31:23Z</time>
      </trkpt>
      <trkpt lat="42.99572" lon="0.07086">
        <ele>1628.4</ele>
        <time>2018-11-15T09:31:39Z</time>
      </trkpt>
      <trkpt lat="42.99572" lon="0.07085">
        <ele>1628.7</ele>
        <time>2018-11-15T09:31:40Z</time>
      </trkpt>
      <trkpt lat="42.99567" lon="0.07064">
        <ele>1635.2</ele>
        <time>2018-11-15T09:32:08Z</time>
      </trkpt>
      <trkpt lat="42.99562" lon="0.07054">
        <ele>1639</ele>
        <time>2018-11-15T09:32:21Z</time>
      </trkpt>
      <trkpt lat="42.99561" lon="0.07042">
        <ele>1641.5</ele>
        <time>2018-11-15T09:32:38Z</time>
      </trkpt>
      <trkpt lat="42.99562" lon="0.07031">
        <ele>1645.6</ele>
        <time>2018-11-15T09:33:01Z</time>
      </trkpt>
      <trkpt lat="42.99562" lon="0.0703">
        <ele>1645.5</ele>
        <time>2018-11-15T09:33:02Z</time>
      </trkpt>
      <trkpt lat="42.99551" lon="0.07014">
        <ele>1653.1</ele>
        <time>2018-11-15T09:33:30Z</time>
      </trkpt>
      <trkpt lat="42.99552" lon="0.07002">
        <ele>1657.6</ele>
        <time>2018-11-15T09:33:51Z</time>
      </trkpt>
      <trkpt lat="42.99555" lon="0.06991">
        <ele>1659.4</ele>
        <time>2018-11-15T09:34:06Z</time>
      </trkpt>
      <trkpt lat="42.99555" lon="0.0699">
        <ele>1660.1</ele>
        <time>2018-11-15T09:34:07Z</time>
      </trkpt>
      <trkpt lat="42.99552" lon="0.06967">
        <ele>1669.4</ele>
        <time>2018-11-15T09:34:42Z</time>
      </trkpt>
      <trkpt lat="42.99557" lon="0.06957">
        <ele>1673.8</ele>
        <time>2018-11-15T09:35:03Z</time>
      </trkpt>
      <trkpt lat="42.99555" lon="0.06945">
        <ele>1676.7</ele>
        <time>2018-11-15T09:35:22Z</time>
      </trkpt>
      <trkpt lat="42.99555" lon="0.06945">
        <ele>1676.7</ele>
        <time>2018-11-15T09:35:23Z</time>
      </trkpt>
      <trkpt lat="42.99549" lon="0.06922">
        <ele>1683.5</ele>
        <time>2018-11-15T09:35:59Z</time>
      </trkpt>
      <trkpt lat="42.99548" lon="0.06911">
        <ele>1687.9</ele>
        <time>2018-11-15T09:36:15Z</time>
      </trkpt>
      <trkpt lat="42.99544" lon="0.069">
        <ele>1690</ele>
        <time>2018-11-15T09:36:30Z</time>
      </trkpt>
      <trkpt lat="42.99543" lon="0.069">
        <ele>1690.2</ele>
        <time>2018-11-15T09:36:31Z</time>
      </trkpt>
      <trkpt lat="42.99542" lon="0.06877">
        <ele>1696.4</ele>
        <time>2018-11-15T09:37:00Z</time>
      </trkpt>
      <trkpt lat="42.99541" lon="0.06865">
        <ele>1700.4</ele>
        <time>2018-11-15T09:37:20Z</time>
      </trkpt>
      <trkpt lat="42.99537" lon="0.06855">
        <ele>1705.4</ele>
        <time>2018-11-15T09:37:40Z</time>
      </trkpt>
      <trkpt lat="42.99536" lon="0.06855">
        <ele>1705.6</ele>
        <time>2018-11-15T09:37:41Z</time>
      </trkpt>
      <trkpt lat="42.99529" lon="0.06833">
        <ele>1722.1</ele>
        <time>2018-11-15T09:39:01Z</time>
      </trkpt>
      <trkpt lat="42.99529" lon="0.06833">
        <ele>1722.3</ele>
        <time>2018-11-15T09:39:02Z</time>
      </trkpt>
      <trkpt lat="42.99523" lon="0.06813">
        <ele>1727.4</ele>
        <time>2018-11-15T09:39:34Z</time>
      </trkpt>
      <trkpt lat="42.99524" lon="0.06801">
        <ele>1733.4</ele>
        <time>2018-11-15T09:39:58Z</time>
      </trkpt>
      <trkpt lat="42.99521" lon="0.0679">
        <ele>1735.4</ele>
        <time>2018-11-15T09:40:10Z</time>
      </trkpt>
      <trkpt lat="42.99521" lon="0.06789">
        <ele>1735.9</ele>
        <time>2018-11-15T09:40:11Z</time>
      </trkpt>
      <trkpt lat="42.99514" lon="0.0677">
        <ele>1741.7</ele>
        <time>2018-11-15T09:40:37Z</time>
      </trkpt>
      <trkpt lat="42.99513" lon="0.06758">
        <ele>1745.3</ele>
        <time>2018-11-15T09:40:53Z</time>
      </trkpt>
      <trkpt lat="42.9951" lon="0.06747">
        <ele>1747.8</ele>
        <time>2018-11-15T09:41:10Z</time>
      </trkpt>
      <trkpt lat="42.99507" lon="0.06736">
        <ele>1751.7</ele>
        <time>2018-11-15T09:41:28Z</time>
      </trkpt>
      <trkpt lat="42.99507" lon="0.06734">
        <ele>1752.1</ele>
        <time>2018-11-15T09:41:29Z</time>
      </trkpt>
      <trkpt lat="42.99505" lon="0.06713">
        <ele>1759.8</ele>
        <time>2018-11-15T09:42:07Z</time>
      </trkpt>
      <trkpt lat="42.99503" lon="0.06701">
        <ele>1762.7</ele>
        <time>2018-11-15T09:42:23Z</time>
      </trkpt>
      <trkpt lat="42.99501" lon="0.0669">
        <ele>1767.5</ele>
        <time>2018-11-15T09:42:45Z</time>
      </trkpt>
      <trkpt lat="42.99501" lon="0.06689">
        <ele>1767.7</ele>
        <time>2018-11-15T09:42:46Z</time>
      </trkpt>
      <trkpt lat="42.99488" lon="0.06674">
        <ele>1776</ele>
        <time>2018-11-15T09:43:24Z</time>
      </trkpt>
      <trkpt lat="42.99483" lon="0.06664">
        <ele>1780.9</ele>
        <time>2018-11-15T09:43:47Z</time>
      </trkpt>
      <trkpt lat="42.99483" lon="0.06664">
        <ele>1780.7</ele>
        <time>2018-11-15T09:43:48Z</time>
      </trkpt>
      <trkpt lat="42.99486" lon="0.06641">
        <ele>1789.2</ele>
        <time>2018-11-15T09:44:44Z</time>
      </trkpt>
      <trkpt lat="42.9949" lon="0.0663">
        <ele>1792.3</ele>
        <time>2018-11-15T09:45:02Z</time>
      </trkpt>
      <trkpt lat="42.9949" lon="0.06629">
        <ele>1792.4</ele>
        <time>2018-11-15T09:45:03Z</time>
      </trkpt>
      <trkpt lat="42.99474" lon="0.06623">
        <ele>1800</ele>
        <time>2018-11-15T09:46:02Z</time>
      </trkpt>
      <trkpt lat="42.99466" lon="0.06627">
        <ele>1804.5</ele>
        <time>2018-11-15T09:46:23Z</time>
      </trkpt>
      <trkpt lat="42.99465" lon="0.06628">
        <ele>1804.7</ele>
        <time>2018-11-15T09:46:24Z</time>
      </trkpt>
      <trkpt lat="42.99453" lon="0.06644">
        <ele>1812.9</ele>
        <time>2018-11-15T09:47:07Z</time>
      </trkpt>
      <trkpt lat="42.99446" lon="0.06651">
        <ele>1815.8</ele>
        <time>2018-11-15T09:47:24Z</time>
      </trkpt>
      <trkpt lat="42.99446" lon="0.06652">
        <ele>1816</ele>
        <time>2018-11-15T09:47:25Z</time>
      </trkpt>
      <trkpt lat="42.99429" lon="0.06653">
        <ele>1826.9</ele>
        <time>2018-11-15T09:48:14Z</time>
      </trkpt>
      <trkpt lat="42.99421" lon="0.06659">
        <ele>1830.2</ele>
        <time>2018-11-15T09:48:37Z</time>
      </trkpt>
      <trkpt lat="42.9942" lon="0.06659">
        <ele>1830.6</ele>
        <time>2018-11-15T09:48:38Z</time>
      </trkpt>
      <trkpt lat="42.99403" lon="0.06661">
        <ele>1845.7</ele>
        <time>2018-11-15T09:49:42Z</time>
      </trkpt>
      <trkpt lat="42.99403" lon="0.06661">
        <ele>1845.9</ele>
        <time>2018-11-15T09:49:43Z</time>
      </trkpt>
      <trkpt lat="42.99387" lon="0.06663">
        <ele>1853.6</ele>
        <time>2018-11-15T09:50:19Z</time>
      </trkpt>
      <trkpt lat="42.99378" lon="0.06664">
        <ele>1857.7</ele>
        <time>2018-11-15T09:50:38Z</time>
      </trkpt>
      <trkpt lat="42.99369" lon="0.06663">
        <ele>1862.3</ele>
        <time>2018-11-15T09:50:56Z</time>
      </trkpt>
      <trkpt lat="42.99369" lon="0.06663">
        <ele>1862.4</ele>
        <time>2018-11-15T09:50:57Z</time>
      </trkpt>
      <trkpt lat="42.99353" lon="0.06671">
        <ele>1872.5</ele>
        <time>2018-11-15T09:51:43Z</time>
      </trkpt>
      <trkpt lat="42.99344" lon="0.0667">
        <ele>1874.6</ele>
        <time>2018-11-15T09:52:46Z</time>
      </trkpt>
      <trkpt lat="42.99344" lon="0.0667">
        <ele>1874.5</ele>
        <time>2018-11-15T09:52:47Z</time>
      </trkpt>
      <trkpt lat="42.99335" lon="0.06668">
        <ele>1879.3</ele>
        <time>2018-11-15T09:53:52Z</time>
      </trkpt>
      <trkpt lat="42.99324" lon="0.06682">
        <ele>1889.3</ele>
        <time>2018-11-15T09:54:42Z</time>
      </trkpt>
      <trkpt lat="42.99316" lon="0.06686">
        <ele>1895.9</ele>
        <time>2018-11-15T09:55:05Z</time>
      </trkpt>
      <trkpt lat="42.99315" lon="0.06686">
        <ele>1896.1</ele>
        <time>2018-11-15T09:55:06Z</time>
      </trkpt>
      <trkpt lat="42.99302" lon="0.06689">
        <ele>1903.3</ele>
        <time>2018-11-15T09:55:42Z</time>
      </trkpt>
      <trkpt lat="42.99295" lon="0.06698">
        <ele>1908.1</ele>
        <time>2018-11-15T09:56:04Z</time>
      </trkpt>
      <trkpt lat="42.99287" lon="0.06695">
        <ele>1911.8</ele>
        <time>2018-11-15T09:56:19Z</time>
      </trkpt>
      <trkpt lat="42.99286" lon="0.06696">
        <ele>1912</ele>
        <time>2018-11-15T09:56:20Z</time>
      </trkpt>
      <trkpt lat="42.9927" lon="0.06701">
        <ele>1919.9</ele>
        <time>2018-11-15T09:57:00Z</time>
      </trkpt>
      <trkpt lat="42.99261" lon="0.06702">
        <ele>1922.4</ele>
        <time>2018-11-15T09:57:16Z</time>
      </trkpt>
      <trkpt lat="42.99253" lon="0.067">
        <ele>1926.4</ele>
        <time>2018-11-15T09:57:30Z</time>
      </trkpt>
      <trkpt lat="42.99252" lon="0.06699">
        <ele>1926.8</ele>
        <time>2018-11-15T09:57:31Z</time>
      </trkpt>
      <trkpt lat="42.99236" lon="0.06697">
        <ele>1931.9</ele>
        <time>2018-11-15T09:57:56Z</time>
      </trkpt>
      <trkpt lat="42.99227" lon="0.06701">
        <ele>1935.5</ele>
        <time>2018-11-15T09:58:15Z</time>
      </trkpt>
      <trkpt lat="42.99218" lon="0.06699">
        <ele>1940.7</ele>
        <time>2018-11-15T09:58:38Z</time>
      </trkpt>
      <trkpt lat="42.99218" lon="0.06699">
        <ele>1940.6</ele>
        <time>2018-11-15T09:58:39Z</time>
      </trkpt>
      <trkpt lat="42.99201" lon="0.06697">
        <ele>1946.8</ele>
        <time>2018-11-15T09:59:09Z</time>
      </trkpt>
      <trkpt lat="42.99193" lon="0.06694">
        <ele>1948.6</ele>
        <time>2018-11-15T09:59:20Z</time>
      </trkpt>
      <trkpt lat="42.99184" lon="0.0669">
        <ele>1950.8</ele>
        <time>2018-11-15T09:59:33Z</time>
      </trkpt>
      <trkpt lat="42.99176" lon="0.06687">
        <ele>1953.7</ele>
        <time>2018-11-15T09:59:47Z</time>
      </trkpt>
      <trkpt lat="42.99175" lon="0.06686">
        <ele>1954</ele>
        <time>2018-11-15T09:59:48Z</time>
      </trkpt>
      <trkpt lat="42.99162" lon="0.06692">
        <ele>1958.5</ele>
        <time>2018-11-15T10:00:10Z</time>
      </trkpt>
      <trkpt lat="42.99157" lon="0.06702">
        <ele>1960.3</ele>
        <time>2018-11-15T10:00:21Z</time>
      </trkpt>
      <trkpt lat="42.99154" lon="0.06712">
        <ele>1962.8</ele>
        <time>2018-11-15T10:00:31Z</time>
      </trkpt>
      <trkpt lat="42.99151" lon="0.06723">
        <ele>1964.4</ele>
        <time>2018-11-15T10:00:41Z</time>
      </trkpt>
      <trkpt lat="42.99145" lon="0.06733">
        <ele>1965.5</ele>
        <time>2018-11-15T10:00:52Z</time>
      </trkpt>
      <trkpt lat="42.99145" lon="0.06733">
        <ele>1965.9</ele>
        <time>2018-11-15T10:00:53Z</time>
      </trkpt>
      <trkpt lat="42.99135" lon="0.06751">
        <ele>1969.2</ele>
        <time>2018-11-15T10:01:16Z</time>
      </trkpt>
      <trkpt lat="42.99126" lon="0.0675">
        <ele>1970.7</ele>
        <time>2018-11-15T10:01:27Z</time>
      </trkpt>
      <trkpt lat="42.99119" lon="0.06744">
        <ele>1972.5</ele>
        <time>2018-11-15T10:01:38Z</time>
      </trkpt>
      <trkpt lat="42.9911" lon="0.0674">
        <ele>1976.2</ele>
        <time>2018-11-15T10:01:50Z</time>
      </trkpt>
      <trkpt lat="42.99102" lon="0.06742">
        <ele>1977.9</ele>
        <time>2018-11-15T10:02:10Z</time>
      </trkpt>
      <trkpt lat="42.99101" lon="0.06742">
        <ele>1977.9</ele>
        <time>2018-11-15T10:02:11Z</time>
      </trkpt>
      <trkpt lat="42.99085" lon="0.06734">
        <ele>1982.2</ele>
        <time>2018-11-15T10:02:38Z</time>
      </trkpt>
      <trkpt lat="42.99082" lon="0.06724">
        <ele>1982.4</ele>
        <time>2018-11-15T10:02:48Z</time>
      </trkpt>
      <trkpt lat="42.99083" lon="0.06712">
        <ele>1984.5</ele>
        <time>2018-11-15T10:03:02Z</time>
      </trkpt>
      <trkpt lat="42.9908" lon="0.06701">
        <ele>1985.9</ele>
        <time>2018-11-15T10:03:12Z</time>
      </trkpt>
      <trkpt lat="42.99079" lon="0.067">
        <ele>1985.4</ele>
        <time>2018-11-15T10:03:13Z</time>
      </trkpt>
      <trkpt lat="42.99075" lon="0.06679">
        <ele>1986.6</ele>
        <time>2018-11-15T10:03:29Z</time>
      </trkpt>
      <trkpt lat="42.99074" lon="0.06667">
        <ele>1987.4</ele>
        <time>2018-11-15T10:03:39Z</time>
      </trkpt>
      <trkpt lat="42.99073" lon="0.06655">
        <ele>1990.1</ele>
        <time>2018-11-15T10:03:50Z</time>
      </trkpt>
      <trkpt lat="42.99069" lon="0.06645">
        <ele>1992.1</ele>
        <time>2018-11-15T10:04:00Z</time>
      </trkpt>
      <trkpt lat="42.99068" lon="0.06633">
        <ele>1994.5</ele>
        <time>2018-11-15T10:04:13Z</time>
      </trkpt>
      <trkpt lat="42.99068" lon="0.06633">
        <ele>1994.6</ele>
        <time>2018-11-15T10:04:14Z</time>
      </trkpt>
      <trkpt lat="42.99061" lon="0.06624">
        <ele>1997.8</ele>
        <time>2018-11-15T10:07:13Z</time>
      </trkpt>
      <trkpt lat="42.99058" lon="0.06603">
        <ele>2002.4</ele>
        <time>2018-11-15T10:08:30Z</time>
      </trkpt>
      <trkpt lat="42.99058" lon="0.06602">
        <ele>2002.5</ele>
        <time>2018-11-15T10:08:31Z</time>
      </trkpt>
      <trkpt lat="42.99049" lon="0.06585">
        <ele>2007.4</ele>
        <time>2018-11-15T10:08:52Z</time>
      </trkpt>
      <trkpt lat="42.99044" lon="0.06575">
        <ele>2011.9</ele>
        <time>2018-11-15T10:09:13Z</time>
      </trkpt>
      <trkpt lat="42.99038" lon="0.06567">
        <ele>2015.9</ele>
        <time>2018-11-15T10:10:44Z</time>
      </trkpt>
      <trkpt lat="42.99037" lon="0.06567">
        <ele>2016</ele>
        <time>2018-11-15T10:10:45Z</time>
      </trkpt>
      <trkpt lat="42.99021" lon="0.06562">
        <ele>2024.1</ele>
        <time>2018-11-15T10:11:26Z</time>
      </trkpt>
      <trkpt lat="42.99014" lon="0.06554">
        <ele>2029.3</ele>
        <time>2018-11-15T10:11:49Z</time>
      </trkpt>
      <trkpt lat="42.99014" lon="0.06553">
        <ele>2029.4</ele>
        <time>2018-11-15T10:11:50Z</time>
      </trkpt>
      <trkpt lat="42.99007" lon="0.06532">
        <ele>2037.1</ele>
        <time>2018-11-15T10:12:30Z</time>
      </trkpt>
      <trkpt lat="42.99006" lon="0.0652">
        <ele>2042.9</ele>
        <time>2018-11-15T10:12:58Z</time>
      </trkpt>
      <trkpt lat="42.99006" lon="0.0652">
        <ele>2043.1</ele>
        <time>2018-11-15T10:12:59Z</time>
      </trkpt>
      <trkpt lat="42.98996" lon="0.06505">
        <ele>2053.4</ele>
        <time>2018-11-15T10:14:01Z</time>
      </trkpt>
      <trkpt lat="42.98995" lon="0.06505">
        <ele>2053.5</ele>
        <time>2018-11-15T10:14:02Z</time>
      </trkpt>
      <trkpt lat="42.98979" lon="0.06509">
        <ele>2056.1</ele>
        <time>2018-11-15T10:14:23Z</time>
      </trkpt>
      <trkpt lat="42.98972" lon="0.06515">
        <ele>2057.1</ele>
        <time>2018-11-15T10:14:33Z</time>
      </trkpt>
      <trkpt lat="42.98964" lon="0.06521">
        <ele>2057.2</ele>
        <time>2018-11-15T10:14:43Z</time>
      </trkpt>
      <trkpt lat="42.98956" lon="0.06526">
        <ele>2056.8</ele>
        <time>2018-11-15T10:14:52Z</time>
      </trkpt>
      <trkpt lat="42.9895" lon="0.06535">
        <ele>2059.8</ele>
        <time>2018-11-15T10:15:03Z</time>
      </trkpt>
      <trkpt lat="42.98949" lon="0.06536">
        <ele>2059.7</ele>
        <time>2018-11-15T10:15:04Z</time>
      </trkpt>
      <trkpt lat="42.98937" lon="0.06549">
        <ele>2061.1</ele>
        <time>2018-11-15T10:15:22Z</time>
      </trkpt>
      <trkpt lat="42.9893" lon="0.06553">
        <ele>2059.6</ele>
        <time>2018-11-15T10:15:29Z</time>
      </trkpt>
      <trkpt lat="42.98921" lon="0.06556">
        <ele>2060.2</ele>
        <time>2018-11-15T10:15:38Z</time>
      </trkpt>
      <trkpt lat="42.98913" lon="0.06558">
        <ele>2061.3</ele>
        <time>2018-11-15T10:15:47Z</time>
      </trkpt>
      <trkpt lat="42.98906" lon="0.06564">
        <ele>2062.4</ele>
        <time>2018-11-15T10:15:57Z</time>
      </trkpt>
      <trkpt lat="42.98899" lon="0.0657">
        <ele>2064</ele>
        <time>2018-11-15T10:16:07Z</time>
      </trkpt>
      <trkpt lat="42.98898" lon="0.0657">
        <ele>2063.7</ele>
        <time>2018-11-15T10:16:08Z</time>
      </trkpt>
      <trkpt lat="42.98882" lon="0.06577">
        <ele>2064.4</ele>
        <time>2018-11-15T10:16:23Z</time>
      </trkpt>
      <trkpt lat="42.98873" lon="0.0658">
        <ele>2063.7</ele>
        <time>2018-11-15T10:16:31Z</time>
      </trkpt>
      <trkpt lat="42.98865" lon="0.06582">
        <ele>2063.9</ele>
        <time>2018-11-15T10:16:39Z</time>
      </trkpt>
      <trkpt lat="42.98857" lon="0.06586">
        <ele>2065.1</ele>
        <time>2018-11-15T10:16:47Z</time>
      </trkpt>
      <trkpt lat="42.98849" lon="0.06591">
        <ele>2067</ele>
        <time>2018-11-15T10:16:59Z</time>
      </trkpt>
      <trkpt lat="42.98842" lon="0.06597">
        <ele>2068.3</ele>
        <time>2018-11-15T10:17:11Z</time>
      </trkpt>
      <trkpt lat="42.98841" lon="0.06598">
        <ele>2069</ele>
        <time>2018-11-15T10:17:12Z</time>
      </trkpt>
      <trkpt lat="42.98825" lon="0.06598">
        <ele>2071.2</ele>
        <time>2018-11-15T10:17:34Z</time>
      </trkpt>
      <trkpt lat="42.98817" lon="0.06597">
        <ele>2071</ele>
        <time>2018-11-15T10:17:41Z</time>
      </trkpt>
      <trkpt lat="42.98809" lon="0.06597">
        <ele>2071.1</ele>
        <time>2018-11-15T10:17:48Z</time>
      </trkpt>
      <trkpt lat="42.98801" lon="0.06594">
        <ele>2072.2</ele>
        <time>2018-11-15T10:17:55Z</time>
      </trkpt>
      <trkpt lat="42.98793" lon="0.06591">
        <ele>2071.4</ele>
        <time>2018-11-15T10:18:03Z</time>
      </trkpt>
      <trkpt lat="42.98784" lon="0.06588">
        <ele>2071.6</ele>
        <time>2018-11-15T10:18:12Z</time>
      </trkpt>
      <trkpt lat="42.98783" lon="0.06587">
        <ele>2071.6</ele>
        <time>2018-11-15T10:18:13Z</time>
      </trkpt>
      <trkpt lat="42.98769" lon="0.06581">
        <ele>2073.8</ele>
        <time>2018-11-15T10:18:28Z</time>
      </trkpt>
      <trkpt lat="42.98761" lon="0.06579">
        <ele>2073.7</ele>
        <time>2018-11-15T10:18:35Z</time>
      </trkpt>
      <trkpt lat="42.98752" lon="0.06576">
        <ele>2073.8</ele>
        <time>2018-11-15T10:18:42Z</time>
      </trkpt>
      <trkpt lat="42.98744" lon="0.06571">
        <ele>2073.2</ele>
        <time>2018-11-15T10:18:49Z</time>
      </trkpt>
      <trkpt lat="42.98736" lon="0.06569">
        <ele>2071.8</ele>
        <time>2018-11-15T10:18:56Z</time>
      </trkpt>
      <trkpt lat="42.98728" lon="0.06567">
        <ele>2074.1</ele>
        <time>2018-11-15T10:19:03Z</time>
      </trkpt>
      <trkpt lat="42.9872" lon="0.06568">
        <ele>2073.2</ele>
        <time>2018-11-15T10:19:10Z</time>
      </trkpt>
      <trkpt lat="42.98711" lon="0.06567">
        <ele>2072.3</ele>
        <time>2018-11-15T10:19:17Z</time>
      </trkpt>
      <trkpt lat="42.9871" lon="0.06567">
        <ele>2072.3</ele>
        <time>2018-11-15T10:19:18Z</time>
      </trkpt>
      <trkpt lat="42.98694" lon="0.06564">
        <ele>2072.2</ele>
        <time>2018-11-15T10:19:31Z</time>
      </trkpt>
      <trkpt lat="42.98687" lon="0.06564">
        <ele>2072.6</ele>
        <time>2018-11-15T10:19:38Z</time>
      </trkpt>
      <trkpt lat="42.98678" lon="0.06563">
        <ele>2072.4</ele>
        <time>2018-11-15T10:19:45Z</time>
      </trkpt>
      <trkpt lat="42.98669" lon="0.06563">
        <ele>2071.5</ele>
        <time>2018-11-15T10:19:53Z</time>
      </trkpt>
      <trkpt lat="42.9866" lon="0.06563">
        <ele>2071.4</ele>
        <time>2018-11-15T10:20:03Z</time>
      </trkpt>
      <trkpt lat="42.98652" lon="0.06564">
        <ele>2070.4</ele>
        <time>2018-11-15T10:20:10Z</time>
      </trkpt>
      <trkpt lat="42.98644" lon="0.06564">
        <ele>2070.2</ele>
        <time>2018-11-15T10:20:16Z</time>
      </trkpt>
      <trkpt lat="42.98636" lon="0.0656">
        <ele>2068.4</ele>
        <time>2018-11-15T10:20:24Z</time>
      </trkpt>
      <trkpt lat="42.98636" lon="0.0656">
        <ele>2068.5</ele>
        <time>2018-11-15T10:20:25Z</time>
      </trkpt>
      <trkpt lat="42.9862" lon="0.06555">
        <ele>2066.9</ele>
        <time>2018-11-15T10:20:44Z</time>
      </trkpt>
      <trkpt lat="42.98612" lon="0.06552">
        <ele>2067.8</ele>
        <time>2018-11-15T10:20:52Z</time>
      </trkpt>
      <trkpt lat="42.98604" lon="0.06548">
        <ele>2069.1</ele>
        <time>2018-11-15T10:21:02Z</time>
      </trkpt>
      <trkpt lat="42.98595" lon="0.06544">
        <ele>2069.2</ele>
        <time>2018-11-15T10:21:12Z</time>
      </trkpt>
      <trkpt lat="42.98586" lon="0.06544">
        <ele>2070.1</ele>
        <time>2018-11-15T10:21:49Z</time>
      </trkpt>
      <trkpt lat="42.98585" lon="0.06544">
        <ele>2070.3</ele>
        <time>2018-11-15T10:21:50Z</time>
      </trkpt>
      <trkpt lat="42.98572" lon="0.06535">
        <ele>2070.1</ele>
        <time>2018-11-15T10:22:08Z</time>
      </trkpt>
      <trkpt lat="42.98564" lon="0.06532">
        <ele>2069.4</ele>
        <time>2018-11-15T10:22:17Z</time>
      </trkpt>
      <trkpt lat="42.98556" lon="0.0653">
        <ele>2070.8</ele>
        <time>2018-11-15T10:22:25Z</time>
      </trkpt>
      <trkpt lat="42.98547" lon="0.06528">
        <ele>2071.7</ele>
        <time>2018-11-15T10:22:33Z</time>
      </trkpt>
      <trkpt lat="42.98539" lon="0.06527">
        <ele>2072.1</ele>
        <time>2018-11-15T10:22:42Z</time>
      </trkpt>
      <trkpt lat="42.98531" lon="0.06527">
        <ele>2074.2</ele>
        <time>2018-11-15T10:22:51Z</time>
      </trkpt>
      <trkpt lat="42.9853" lon="0.06527">
        <ele>2074.5</ele>
        <time>2018-11-15T10:22:52Z</time>
      </trkpt>
      <trkpt lat="42.98513" lon="0.06521">
        <ele>2077.6</ele>
        <time>2018-11-15T10:23:12Z</time>
      </trkpt>
      <trkpt lat="42.98505" lon="0.06521">
        <ele>2080.1</ele>
        <time>2018-11-15T10:23:24Z</time>
      </trkpt>
      <trkpt lat="42.98496" lon="0.06519">
        <ele>2081.5</ele>
        <time>2018-11-15T10:23:34Z</time>
      </trkpt>
      <trkpt lat="42.98496" lon="0.06531">
        <ele>2085.9</ele>
        <time>2018-11-15T10:24:21Z</time>
      </trkpt>
      <trkpt lat="42.98497" lon="0.06532">
        <ele>2086</ele>
        <time>2018-11-15T10:24:22Z</time>
      </trkpt>
      <trkpt lat="42.98508" lon="0.06549">
        <ele>2092.6</ele>
        <time>2018-11-15T10:24:53Z</time>
      </trkpt>
      <trkpt lat="42.98512" lon="0.06559">
        <ele>2095.3</ele>
        <time>2018-11-15T10:25:03Z</time>
      </trkpt>
      <trkpt lat="42.98518" lon="0.06568">
        <ele>2096.9</ele>
        <time>2018-11-15T10:25:13Z</time>
      </trkpt>
      <trkpt lat="42.98524" lon="0.06576">
        <ele>2099.8</ele>
        <time>2018-11-15T10:25:30Z</time>
      </trkpt>
      <trkpt lat="42.98525" lon="0.06577">
        <ele>2100</ele>
        <time>2018-11-15T10:25:31Z</time>
      </trkpt>
      <trkpt lat="42.98532" lon="0.06598">
        <ele>2107.4</ele>
        <time>2018-11-15T10:26:07Z</time>
      </trkpt>
      <trkpt lat="42.98534" lon="0.06609">
        <ele>2112</ele>
        <time>2018-11-15T10:26:29Z</time>
      </trkpt>
      <trkpt lat="42.98536" lon="0.06621">
        <ele>2119.3</ele>
        <time>2018-11-15T10:27:00Z</time>
      </trkpt>
      <trkpt lat="42.98537" lon="0.06622">
        <ele>2119.6</ele>
        <time>2018-11-15T10:27:01Z</time>
      </trkpt>
      <trkpt lat="42.98547" lon="0.0664">
        <ele>2128.2</ele>
        <time>2018-11-15T10:27:42Z</time>
      </trkpt>
      <trkpt lat="42.98552" lon="0.06649">
        <ele>2131.5</ele>
        <time>2018-11-15T10:28:01Z</time>
      </trkpt>
      <trkpt lat="42.98553" lon="0.06649">
        <ele>2131.7</ele>
        <time>2018-11-15T10:28:02Z</time>
      </trkpt>
      <trkpt lat="42.98554" lon="0.06673">
        <ele>2142.1</ele>
        <time>2018-11-15T10:28:57Z</time>
      </trkpt>
      <trkpt lat="42.98556" lon="0.06684">
        <ele>2148.1</ele>
        <time>2018-11-15T10:29:28Z</time>
      </trkpt>
      <trkpt lat="42.98556" lon="0.06685">
        <ele>2148.5</ele>
        <time>2018-11-15T10:29:29Z</time>
      </trkpt>
      <trkpt lat="42.9856" lon="0.06706">
        <ele>2157.2</ele>
        <time>2018-11-15T10:30:24Z</time>
      </trkpt>
      <trkpt lat="42.98562" lon="0.06717">
        <ele>2163.5</ele>
        <time>2018-11-15T10:30:51Z</time>
      </trkpt>
      <trkpt lat="42.98563" lon="0.06717">
        <ele>2163.9</ele>
        <time>2018-11-15T10:30:52Z</time>
      </trkpt>
      <trkpt lat="42.9857" lon="0.06739">
        <ele>2172.7</ele>
        <time>2018-11-15T10:31:34Z</time>
      </trkpt>
      <trkpt lat="42.98575" lon="0.06749">
        <ele>2177.1</ele>
        <time>2018-11-15T10:31:54Z</time>
      </trkpt>
      <trkpt lat="42.98575" lon="0.0675">
        <ele>2177.3</ele>
        <time>2018-11-15T10:31:55Z</time>
      </trkpt>
      <trkpt lat="42.98576" lon="0.0677">
        <ele>2182.8</ele>
        <time>2018-11-15T10:34:27Z</time>
      </trkpt>
      <trkpt lat="42.98576" lon="0.06771">
        <ele>2183</ele>
        <time>2018-11-15T10:34:28Z</time>
      </trkpt>
      <trkpt lat="42.98577" lon="0.0679">
        <ele>2195.8</ele>
        <time>2018-11-15T10:35:51Z</time>
      </trkpt>
      <trkpt lat="42.98576" lon="0.06791">
        <ele>2196</ele>
        <time>2018-11-15T10:35:52Z</time>
      </trkpt>
      <trkpt lat="42.98561" lon="0.06801">
        <ele>2206.4</ele>
        <time>2018-11-15T10:36:50Z</time>
      </trkpt>
      <trkpt lat="42.98557" lon="0.06812">
        <ele>2212.8</ele>
        <time>2018-11-15T10:37:24Z</time>
      </trkpt>
      <trkpt lat="42.98557" lon="0.06812">
        <ele>2213.2</ele>
        <time>2018-11-15T10:37:25Z</time>
      </trkpt>
      <trkpt lat="42.98539" lon="0.06815">
        <ele>2219.1</ele>
        <time>2018-11-15T10:37:59Z</time>
      </trkpt>
      <trkpt lat="42.98531" lon="0.06814">
        <ele>2222.3</ele>
        <time>2018-11-15T10:38:14Z</time>
      </trkpt>
      <trkpt lat="42.98523" lon="0.06817">
        <ele>2224.3</ele>
        <time>2018-11-15T10:38:29Z</time>
      </trkpt>
      <trkpt lat="42.98522" lon="0.06817">
        <ele>2224.5</ele>
        <time>2018-11-15T10:38:30Z</time>
      </trkpt>
      <trkpt lat="42.98506" lon="0.06814">
        <ele>2229.5</ele>
        <time>2018-11-15T10:38:55Z</time>
      </trkpt>
      <trkpt lat="42.98497" lon="0.06816">
        <ele>2232.5</ele>
        <time>2018-11-15T10:39:14Z</time>
      </trkpt>
      <trkpt lat="42.98488" lon="0.06817">
        <ele>2237.5</ele>
        <time>2018-11-15T10:39:35Z</time>
      </trkpt>
      <trkpt lat="42.98488" lon="0.06817">
        <ele>2237.5</ele>
        <time>2018-11-15T10:39:36Z</time>
      </trkpt>
      <trkpt lat="42.98471" lon="0.06821">
        <ele>2244.9</ele>
        <time>2018-11-15T10:40:19Z</time>
      </trkpt>
      <trkpt lat="42.98463" lon="0.06825">
        <ele>2252</ele>
        <time>2018-11-15T10:40:58Z</time>
      </trkpt>
      <trkpt lat="42.98462" lon="0.06824">
        <ele>2251.8</ele>
        <time>2018-11-15T10:40:59Z</time>
      </trkpt>
      <trkpt lat="42.98446" lon="0.06829">
        <ele>2257.9</ele>
        <time>2018-11-15T10:41:34Z</time>
      </trkpt>
      <trkpt lat="42.98449" lon="0.0684">
        <ele>2263.8</ele>
        <time>2018-11-15T10:42:12Z</time>
      </trkpt>
      <trkpt lat="42.98449" lon="0.06841">
        <ele>2264</ele>
        <time>2018-11-15T10:42:13Z</time>
      </trkpt>
      <trkpt lat="42.98432" lon="0.06848">
        <ele>2273.1</ele>
        <time>2018-11-15T10:43:01Z</time>
      </trkpt>
      <trkpt lat="42.98424" lon="0.0685">
        <ele>2277.1</ele>
        <time>2018-11-15T10:43:21Z</time>
      </trkpt>
      <trkpt lat="42.98423" lon="0.0685">
        <ele>2277.3</ele>
        <time>2018-11-15T10:43:22Z</time>
      </trkpt>
      <trkpt lat="42.98406" lon="0.06851">
        <ele>2284.8</ele>
        <time>2018-11-15T10:44:29Z</time>
      </trkpt>
      <trkpt lat="42.98405" lon="0.0685">
        <ele>2285</ele>
        <time>2018-11-15T10:44:30Z</time>
      </trkpt>
      <trkpt lat="42.9839" lon="0.06851">
        <ele>2294.5</ele>
        <time>2018-11-15T10:45:48Z</time>
      </trkpt>
      <trkpt lat="42.98389" lon="0.06851">
        <ele>2294.3</ele>
        <time>2018-11-15T10:45:49Z</time>
      </trkpt>
      <trkpt lat="42.98372" lon="0.06853">
        <ele>2296.1</ele>
        <time>2018-11-15T10:46:32Z</time>
      </trkpt>
      <trkpt lat="42.98363" lon="0.06853">
        <ele>2300.8</ele>
        <time>2018-11-15T10:46:56Z</time>
      </trkpt>
      <trkpt lat="42.98363" lon="0.06854">
        <ele>2301.2</ele>
        <time>2018-11-15T10:46:57Z</time>
      </trkpt>
      <trkpt lat="42.98357" lon="0.06869">
        <ele>2311</ele>
        <time>2018-11-15T10:47:47Z</time>
      </trkpt>
      <trkpt lat="42.98365" lon="0.06876">
        <ele>2314.4</ele>
        <time>2018-11-15T10:48:11Z</time>
      </trkpt>
      <trkpt lat="42.98365" lon="0.06876">
        <ele>2314.5</ele>
        <time>2018-11-15T10:48:12Z</time>
      </trkpt>
      <trkpt lat="42.98373" lon="0.0688">
        <ele>2315.3</ele>
        <time>2018-11-15T10:50:31Z</time>
      </trkpt>
      <trkpt lat="42.98364" lon="0.06877">
        <ele>2337.9</ele>
        <time>2018-11-15T11:17:16Z</time>
      </trkpt>
      <trkpt lat="42.98372" lon="0.06884">
        <ele>2339.3</ele>
        <time>2018-11-15T11:23:08Z</time>
      </trkpt>
      <trkpt lat="42.98363" lon="0.06878">
        <ele>2337.7</ele>
        <time>2018-11-15T11:25:16Z</time>
      </trkpt>
      <trkpt lat="42.98349" lon="0.06867">
        <ele>2331.7</ele>
        <time>2018-11-15T11:25:45Z</time>
      </trkpt>
      <trkpt lat="42.98351" lon="0.06855">
        <ele>2325.5</ele>
        <time>2018-11-15T11:26:11Z</time>
      </trkpt>
      <trkpt lat="42.98359" lon="0.0685">
        <ele>2321.4</ele>
        <time>2018-11-15T11:26:37Z</time>
      </trkpt>
      <trkpt lat="42.98359" lon="0.06849">
        <ele>2321.5</ele>
        <time>2018-11-15T11:26:38Z</time>
      </trkpt>
      <trkpt lat="42.98376" lon="0.06846">
        <ele>2319.2</ele>
        <time>2018-11-15T11:27:15Z</time>
      </trkpt>
      <trkpt lat="42.98384" lon="0.06847">
        <ele>2315.4</ele>
        <time>2018-11-15T11:27:52Z</time>
      </trkpt>
      <trkpt lat="42.98385" lon="0.06847">
        <ele>2315.4</ele>
        <time>2018-11-15T11:27:53Z</time>
      </trkpt>
      <trkpt lat="42.98393" lon="0.06852">
        <ele>2311.6</ele>
        <time>2018-11-15T11:29:00Z</time>
      </trkpt>
      <trkpt lat="42.9841" lon="0.0685">
        <ele>2302.6</ele>
        <time>2018-11-15T11:30:42Z</time>
      </trkpt>
      <trkpt lat="42.9841" lon="0.0685">
        <ele>2303.1</ele>
        <time>2018-11-15T11:30:43Z</time>
      </trkpt>
      <trkpt lat="42.98427" lon="0.06845">
        <ele>2294.3</ele>
        <time>2018-11-15T11:32:19Z</time>
      </trkpt>
      <trkpt lat="42.98427" lon="0.06846">
        <ele>2294.1</ele>
        <time>2018-11-15T11:32:20Z</time>
      </trkpt>
      <trkpt lat="42.98443" lon="0.0684">
        <ele>2285.5</ele>
        <time>2018-11-15T11:33:01Z</time>
      </trkpt>
      <trkpt lat="42.98451" lon="0.06835">
        <ele>2282</ele>
        <time>2018-11-15T11:33:19Z</time>
      </trkpt>
      <trkpt lat="42.98455" lon="0.06825">
        <ele>2276.4</ele>
        <time>2018-11-15T11:34:08Z</time>
      </trkpt>
      <trkpt lat="42.98455" lon="0.06824">
        <ele>2275.9</ele>
        <time>2018-11-15T11:34:09Z</time>
      </trkpt>
      <trkpt lat="42.98472" lon="0.06819">
        <ele>2263.6</ele>
        <time>2018-11-15T11:35:51Z</time>
      </trkpt>
      <trkpt lat="42.98472" lon="0.06819">
        <ele>2263.4</ele>
        <time>2018-11-15T11:35:52Z</time>
      </trkpt>
      <trkpt lat="42.98489" lon="0.06812">
        <ele>2255</ele>
        <time>2018-11-15T11:36:49Z</time>
      </trkpt>
      <trkpt lat="42.98497" lon="0.06813">
        <ele>2251.4</ele>
        <time>2018-11-15T11:37:12Z</time>
      </trkpt>
      <trkpt lat="42.98498" lon="0.06813">
        <ele>2251.4</ele>
        <time>2018-11-15T11:37:13Z</time>
      </trkpt>
      <trkpt lat="42.98514" lon="0.06813">
        <ele>2249.5</ele>
        <time>2018-11-15T11:37:36Z</time>
      </trkpt>
      <trkpt lat="42.98523" lon="0.06814">
        <ele>2247.2</ele>
        <time>2018-11-15T11:37:52Z</time>
      </trkpt>
      <trkpt lat="42.98531" lon="0.06817">
        <ele>2244.3</ele>
        <time>2018-11-15T11:38:08Z</time>
      </trkpt>
      <trkpt lat="42.9854" lon="0.06814">
        <ele>2241</ele>
        <time>2018-11-15T11:38:30Z</time>
      </trkpt>
      <trkpt lat="42.9854" lon="0.06813">
        <ele>2240.7</ele>
        <time>2018-11-15T11:38:31Z</time>
      </trkpt>
      <trkpt lat="42.98555" lon="0.06804">
        <ele>2231.8</ele>
        <time>2018-11-15T11:39:50Z</time>
      </trkpt>
      <trkpt lat="42.98556" lon="0.06803">
        <ele>2231.7</ele>
        <time>2018-11-15T11:39:51Z</time>
      </trkpt>
      <trkpt lat="42.98567" lon="0.06786">
        <ele>2219.2</ele>
        <time>2018-11-15T11:41:02Z</time>
      </trkpt>
      <trkpt lat="42.98568" lon="0.06786">
        <ele>2218.7</ele>
        <time>2018-11-15T11:41:03Z</time>
      </trkpt>
      <trkpt lat="42.98583" lon="0.06779">
        <ele>2208.5</ele>
        <time>2018-11-15T11:41:57Z</time>
      </trkpt>
      <trkpt lat="42.98589" lon="0.06771">
        <ele>2202.7</ele>
        <time>2018-11-15T11:42:26Z</time>
      </trkpt>
      <trkpt lat="42.9859" lon="0.0677">
        <ele>2202.5</ele>
        <time>2018-11-15T11:42:27Z</time>
      </trkpt>
      <trkpt lat="42.98603" lon="0.06757">
        <ele>2190.5</ele>
        <time>2018-11-15T11:43:24Z</time>
      </trkpt>
      <trkpt lat="42.98611" lon="0.06755">
        <ele>2186.3</ele>
        <time>2018-11-15T11:43:44Z</time>
      </trkpt>
      <trkpt lat="42.98612" lon="0.06754">
        <ele>2186.3</ele>
        <time>2018-11-15T11:43:45Z</time>
      </trkpt>
      <trkpt lat="42.98628" lon="0.06748">
        <ele>2180</ele>
        <time>2018-11-15T11:44:16Z</time>
      </trkpt>
      <trkpt lat="42.98636" lon="0.06748">
        <ele>2177.8</ele>
        <time>2018-11-15T11:44:29Z</time>
      </trkpt>
      <trkpt lat="42.98644" lon="0.06748">
        <ele>2177.3</ele>
        <time>2018-11-15T11:44:38Z</time>
      </trkpt>
      <trkpt lat="42.98653" lon="0.06747">
        <ele>2176.4</ele>
        <time>2018-11-15T11:44:58Z</time>
      </trkpt>
      <trkpt lat="42.98654" lon="0.06747">
        <ele>2176.4</ele>
        <time>2018-11-15T11:44:59Z</time>
      </trkpt>
      <trkpt lat="42.98668" lon="0.06737">
        <ele>2174.4</ele>
        <time>2018-11-15T11:46:40Z</time>
      </trkpt>
      <trkpt lat="42.98669" lon="0.06737">
        <ele>2174</ele>
        <time>2018-11-15T11:46:41Z</time>
      </trkpt>
      <trkpt lat="42.98684" lon="0.0673">
        <ele>2170.5</ele>
        <time>2018-11-15T11:47:12Z</time>
      </trkpt>
      <trkpt lat="42.98692" lon="0.06726">
        <ele>2169.8</ele>
        <time>2018-11-15T11:47:19Z</time>
      </trkpt>
      <trkpt lat="42.98699" lon="0.0672">
        <ele>2169.3</ele>
        <time>2018-11-15T11:47:28Z</time>
      </trkpt>
      <trkpt lat="42.98707" lon="0.06715">
        <ele>2168.5</ele>
        <time>2018-11-15T11:47:40Z</time>
      </trkpt>
      <trkpt lat="42.98715" lon="0.0671">
        <ele>2167.2</ele>
        <time>2018-11-15T11:47:55Z</time>
      </trkpt>
      <trkpt lat="42.98716" lon="0.0671">
        <ele>2167.5</ele>
        <time>2018-11-15T11:47:56Z</time>
      </trkpt>
      <trkpt lat="42.98729" lon="0.06699">
        <ele>2164.2</ele>
        <time>2018-11-15T11:48:13Z</time>
      </trkpt>
      <trkpt lat="42.98736" lon="0.06693">
        <ele>2163.9</ele>
        <time>2018-11-15T11:48:22Z</time>
      </trkpt>
      <trkpt lat="42.98744" lon="0.06691">
        <ele>2161.2</ele>
        <time>2018-11-15T11:48:31Z</time>
      </trkpt>
      <trkpt lat="42.98752" lon="0.06692">
        <ele>2162.5</ele>
        <time>2018-11-15T11:48:40Z</time>
      </trkpt>
      <trkpt lat="42.98761" lon="0.06693">
        <ele>2159.3</ele>
        <time>2018-11-15T11:48:54Z</time>
      </trkpt>
      <trkpt lat="42.9877" lon="0.0669">
        <ele>2153.2</ele>
        <time>2018-11-15T11:49:15Z</time>
      </trkpt>
      <trkpt lat="42.9877" lon="0.06689">
        <ele>2152.8</ele>
        <time>2018-11-15T11:49:16Z</time>
      </trkpt>
      <trkpt lat="42.98787" lon="0.06685">
        <ele>2145.5</ele>
        <time>2018-11-15T11:49:50Z</time>
      </trkpt>
      <trkpt lat="42.98795" lon="0.06683">
        <ele>2140.4</ele>
        <time>2018-11-15T11:50:11Z</time>
      </trkpt>
      <trkpt lat="42.98803" lon="0.06679">
        <ele>2137.8</ele>
        <time>2018-11-15T11:50:29Z</time>
      </trkpt>
      <trkpt lat="42.98804" lon="0.06679">
        <ele>2137.8</ele>
        <time>2018-11-15T11:50:30Z</time>
      </trkpt>
      <trkpt lat="42.98813" lon="0.06668">
        <ele>2130.3</ele>
        <time>2018-11-15T11:50:52Z</time>
      </trkpt>
      <trkpt lat="42.98821" lon="0.06664">
        <ele>2124.5</ele>
        <time>2018-11-15T11:51:09Z</time>
      </trkpt>
      <trkpt lat="42.98827" lon="0.06656">
        <ele>2119.9</ele>
        <time>2018-11-15T11:51:24Z</time>
      </trkpt>
      <trkpt lat="42.98834" lon="0.0665">
        <ele>2115.8</ele>
        <time>2018-11-15T11:51:39Z</time>
      </trkpt>
      <trkpt lat="42.98835" lon="0.0665">
        <ele>2115.2</ele>
        <time>2018-11-15T11:51:40Z</time>
      </trkpt>
      <trkpt lat="42.9885" lon="0.0664">
        <ele>2109.8</ele>
        <time>2018-11-15T11:52:04Z</time>
      </trkpt>
      <trkpt lat="42.98856" lon="0.06632">
        <ele>2106.4</ele>
        <time>2018-11-15T11:52:14Z</time>
      </trkpt>
      <trkpt lat="42.98862" lon="0.06624">
        <ele>2102.2</ele>
        <time>2018-11-15T11:52:24Z</time>
      </trkpt>
      <trkpt lat="42.98868" lon="0.06616">
        <ele>2100.4</ele>
        <time>2018-11-15T11:52:32Z</time>
      </trkpt>
      <trkpt lat="42.98876" lon="0.0661">
        <ele>2098</ele>
        <time>2018-11-15T11:52:40Z</time>
      </trkpt>
      <trkpt lat="42.98877" lon="0.06609">
        <ele>2097.9</ele>
        <time>2018-11-15T11:52:41Z</time>
      </trkpt>
      <trkpt lat="42.98888" lon="0.06595">
        <ele>2096.7</ele>
        <time>2018-11-15T11:53:00Z</time>
      </trkpt>
      <trkpt lat="42.98895" lon="0.06588">
        <ele>2094.6</ele>
        <time>2018-11-15T11:53:10Z</time>
      </trkpt>
      <trkpt lat="42.98902" lon="0.06582">
        <ele>2095.7</ele>
        <time>2018-11-15T11:53:19Z</time>
      </trkpt>
      <trkpt lat="42.9891" lon="0.06577">
        <ele>2093.6</ele>
        <time>2018-11-15T11:53:27Z</time>
      </trkpt>
      <trkpt lat="42.98919" lon="0.06574">
        <ele>2093.3</ele>
        <time>2018-11-15T11:53:37Z</time>
      </trkpt>
      <trkpt lat="42.98925" lon="0.06568">
        <ele>2092</ele>
        <time>2018-11-15T11:53:47Z</time>
      </trkpt>
      <trkpt lat="42.98926" lon="0.06567">
        <ele>2091.8</ele>
        <time>2018-11-15T11:53:48Z</time>
      </trkpt>
      <trkpt lat="42.98936" lon="0.06552">
        <ele>2089.8</ele>
        <time>2018-11-15T11:54:02Z</time>
      </trkpt>
      <trkpt lat="42.98943" lon="0.06545">
        <ele>2087</ele>
        <time>2018-11-15T11:54:24Z</time>
      </trkpt>
      <trkpt lat="42.98949" lon="0.06538">
        <ele>2086.7</ele>
        <time>2018-11-15T11:54:32Z</time>
      </trkpt>
      <trkpt lat="42.98956" lon="0.06529">
        <ele>2084.3</ele>
        <time>2018-11-15T11:54:45Z</time>
      </trkpt>
      <trkpt lat="42.98961" lon="0.0652">
        <ele>2082.5</ele>
        <time>2018-11-15T11:55:03Z</time>
      </trkpt>
      <trkpt lat="42.98962" lon="0.0652">
        <ele>2082.3</ele>
        <time>2018-11-15T11:55:04Z</time>
      </trkpt>
      <trkpt lat="42.98978" lon="0.06513">
        <ele>2080.4</ele>
        <time>2018-11-15T11:55:21Z</time>
      </trkpt>
      <trkpt lat="42.98986" lon="0.06511">
        <ele>2081</ele>
        <time>2018-11-15T11:55:30Z</time>
      </trkpt>
      <trkpt lat="42.98995" lon="0.0651">
        <ele>2073.9</ele>
        <time>2018-11-15T11:56:12Z</time>
      </trkpt>
      <trkpt lat="42.98995" lon="0.0651">
        <ele>2073.8</ele>
        <time>2018-11-15T11:56:13Z</time>
      </trkpt>
      <trkpt lat="42.99005" lon="0.0653">
        <ele>2063.4</ele>
        <time>2018-11-15T11:57:03Z</time>
      </trkpt>
      <trkpt lat="42.99007" lon="0.06541">
        <ele>2059.4</ele>
        <time>2018-11-15T11:57:20Z</time>
      </trkpt>
      <trkpt lat="42.99007" lon="0.06542">
        <ele>2059.2</ele>
        <time>2018-11-15T11:57:21Z</time>
      </trkpt>
      <trkpt lat="42.99019" lon="0.06557">
        <ele>2049.3</ele>
        <time>2018-11-15T11:57:53Z</time>
      </trkpt>
      <trkpt lat="42.99027" lon="0.06561">
        <ele>2045.1</ele>
        <time>2018-11-15T11:58:10Z</time>
      </trkpt>
      <trkpt lat="42.99035" lon="0.06567">
        <ele>2041.2</ele>
        <time>2018-11-15T11:58:23Z</time>
      </trkpt>
      <trkpt lat="42.99036" lon="0.06567">
        <ele>2041</ele>
        <time>2018-11-15T11:58:24Z</time>
      </trkpt>
      <trkpt lat="42.99047" lon="0.06584">
        <ele>2033.3</ele>
        <time>2018-11-15T11:58:50Z</time>
      </trkpt>
      <trkpt lat="42.99049" lon="0.06595">
        <ele>2030.2</ele>
        <time>2018-11-15T11:59:01Z</time>
      </trkpt>
      <trkpt lat="42.99052" lon="0.06607">
        <ele>2027.4</ele>
        <time>2018-11-15T11:59:11Z</time>
      </trkpt>
      <trkpt lat="42.99055" lon="0.06617">
        <ele>2025.1</ele>
        <time>2018-11-15T11:59:19Z</time>
      </trkpt>
      <trkpt lat="42.99059" lon="0.06628">
        <ele>2022.2</ele>
        <time>2018-11-15T11:59:27Z</time>
      </trkpt>
      <trkpt lat="42.99059" lon="0.06629">
        <ele>2022</ele>
        <time>2018-11-15T11:59:28Z</time>
      </trkpt>
      <trkpt lat="42.99064" lon="0.06649">
        <ele>2016.8</ele>
        <time>2018-11-15T11:59:44Z</time>
      </trkpt>
      <trkpt lat="42.99066" lon="0.06661">
        <ele>2015.1</ele>
        <time>2018-11-15T11:59:52Z</time>
      </trkpt>
      <trkpt lat="42.99069" lon="0.06672">
        <ele>2013.2</ele>
        <time>2018-11-15T11:59:59Z</time>
      </trkpt>
      <trkpt lat="42.9907" lon="0.06684">
        <ele>2010.6</ele>
        <time>2018-11-15T12:00:06Z</time>
      </trkpt>
      <trkpt lat="42.99074" lon="0.06695">
        <ele>2010.4</ele>
        <time>2018-11-15T12:00:14Z</time>
      </trkpt>
      <trkpt lat="42.99074" lon="0.06706">
        <ele>2008.2</ele>
        <time>2018-11-15T12:00:21Z</time>
      </trkpt>
      <trkpt lat="42.99074" lon="0.06718">
        <ele>2010.5</ele>
        <time>2018-11-15T12:00:28Z</time>
      </trkpt>
      <trkpt lat="42.99074" lon="0.0672">
        <ele>2010.7</ele>
        <time>2018-11-15T12:00:29Z</time>
      </trkpt>
      <trkpt lat="42.99086" lon="0.06732">
        <ele>2006.3</ele>
        <time>2018-11-15T12:02:43Z</time>
      </trkpt>
      <trkpt lat="42.99087" lon="0.06732">
        <ele>2006.2</ele>
        <time>2018-11-15T12:02:44Z</time>
      </trkpt>
      <trkpt lat="42.99094" lon="0.0674">
        <ele>2006.2</ele>
        <time>2018-11-15T12:04:11Z</time>
      </trkpt>
      <trkpt lat="42.99102" lon="0.0674">
        <ele>2000.5</ele>
        <time>2018-11-15T12:05:20Z</time>
      </trkpt>
      <trkpt lat="42.99118" lon="0.06749">
        <ele>1997.4</ele>
        <time>2018-11-15T12:05:36Z</time>
      </trkpt>
      <trkpt lat="42.99126" lon="0.06746">
        <ele>1996.5</ele>
        <time>2018-11-15T12:05:45Z</time>
      </trkpt>
      <trkpt lat="42.99132" lon="0.06738">
        <ele>1993.7</ele>
        <time>2018-11-15T12:05:53Z</time>
      </trkpt>
      <trkpt lat="42.99138" lon="0.06729">
        <ele>1992.4</ele>
        <time>2018-11-15T12:06:02Z</time>
      </trkpt>
      <trkpt lat="42.99141" lon="0.06719">
        <ele>1990.4</ele>
        <time>2018-11-15T12:06:11Z</time>
      </trkpt>
      <trkpt lat="42.99143" lon="0.06709">
        <ele>1988.8</ele>
        <time>2018-11-15T12:06:21Z</time>
      </trkpt>
      <trkpt lat="42.99144" lon="0.06707">
        <ele>1988.4</ele>
        <time>2018-11-15T12:06:22Z</time>
      </trkpt>
      <trkpt lat="42.99151" lon="0.06689">
        <ele>1985.2</ele>
        <time>2018-11-15T12:06:36Z</time>
      </trkpt>
      <trkpt lat="42.9916" lon="0.06685">
        <ele>1982.2</ele>
        <time>2018-11-15T12:06:48Z</time>
      </trkpt>
      <trkpt lat="42.99168" lon="0.06689">
        <ele>1979.4</ele>
        <time>2018-11-15T12:07:00Z</time>
      </trkpt>
      <trkpt lat="42.99177" lon="0.0669">
        <ele>1977.5</ele>
        <time>2018-11-15T12:07:11Z</time>
      </trkpt>
      <trkpt lat="42.99185" lon="0.06694">
        <ele>1974.6</ele>
        <time>2018-11-15T12:07:21Z</time>
      </trkpt>
      <trkpt lat="42.99186" lon="0.06694">
        <ele>1974.7</ele>
        <time>2018-11-15T12:07:22Z</time>
      </trkpt>
      <trkpt lat="42.99202" lon="0.06699">
        <ele>1969.1</ele>
        <time>2018-11-15T12:07:44Z</time>
      </trkpt>
      <trkpt lat="42.9921" lon="0.06704">
        <ele>1966.2</ele>
        <time>2018-11-15T12:07:57Z</time>
      </trkpt>
      <trkpt lat="42.99218" lon="0.067">
        <ele>1961.7</ele>
        <time>2018-11-15T12:08:12Z</time>
      </trkpt>
      <trkpt lat="42.99226" lon="0.06697">
        <ele>1957.5</ele>
        <time>2018-11-15T12:08:22Z</time>
      </trkpt>
      <trkpt lat="42.99235" lon="0.06697">
        <ele>1954.2</ele>
        <time>2018-11-15T12:08:33Z</time>
      </trkpt>
      <trkpt lat="42.99235" lon="0.06698">
        <ele>1954.1</ele>
        <time>2018-11-15T12:08:34Z</time>
      </trkpt>
      <trkpt lat="42.99251" lon="0.06701">
        <ele>1949.7</ele>
        <time>2018-11-15T12:08:52Z</time>
      </trkpt>
      <trkpt lat="42.9926" lon="0.06698">
        <ele>1945.4</ele>
        <time>2018-11-15T12:09:05Z</time>
      </trkpt>
      <trkpt lat="42.99268" lon="0.06695">
        <ele>1940.2</ele>
        <time>2018-11-15T12:09:20Z</time>
      </trkpt>
      <trkpt lat="42.99277" lon="0.06695">
        <ele>1937.2</ele>
        <time>2018-11-15T12:09:34Z</time>
      </trkpt>
      <trkpt lat="42.99277" lon="0.06695">
        <ele>1936.8</ele>
        <time>2018-11-15T12:09:35Z</time>
      </trkpt>
      <trkpt lat="42.99293" lon="0.06688">
        <ele>1927.6</ele>
        <time>2018-11-15T12:10:17Z</time>
      </trkpt>
      <trkpt lat="42.99302" lon="0.06687">
        <ele>1923.4</ele>
        <time>2018-11-15T12:10:37Z</time>
      </trkpt>
      <trkpt lat="42.99303" lon="0.06688">
        <ele>1923.2</ele>
        <time>2018-11-15T12:10:38Z</time>
      </trkpt>
      <trkpt lat="42.99319" lon="0.06682">
        <ele>1913.5</ele>
        <time>2018-11-15T12:11:09Z</time>
      </trkpt>
      <trkpt lat="42.99324" lon="0.06672">
        <ele>1908.4</ele>
        <time>2018-11-15T12:11:28Z</time>
      </trkpt>
      <trkpt lat="42.99333" lon="0.0667">
        <ele>1902.5</ele>
        <time>2018-11-15T12:11:44Z</time>
      </trkpt>
      <trkpt lat="42.99333" lon="0.0667">
        <ele>1902.8</ele>
        <time>2018-11-15T12:11:45Z</time>
      </trkpt>
      <trkpt lat="42.99348" lon="0.06663">
        <ele>1894.8</ele>
        <time>2018-11-15T12:12:18Z</time>
      </trkpt>
      <trkpt lat="42.99357" lon="0.06661">
        <ele>1888.3</ele>
        <time>2018-11-15T12:12:36Z</time>
      </trkpt>
      <trkpt lat="42.99365" lon="0.06663">
        <ele>1885.5</ele>
        <time>2018-11-15T12:12:46Z</time>
      </trkpt>
      <trkpt lat="42.99366" lon="0.06663">
        <ele>1885</ele>
        <time>2018-11-15T12:12:47Z</time>
      </trkpt>
      <trkpt lat="42.99382" lon="0.06664">
        <ele>1876.3</ele>
        <time>2018-11-15T12:13:17Z</time>
      </trkpt>
      <trkpt lat="42.99391" lon="0.06662">
        <ele>1872.5</ele>
        <time>2018-11-15T12:13:38Z</time>
      </trkpt>
      <trkpt lat="42.99399" lon="0.06662">
        <ele>1867.6</ele>
        <time>2018-11-15T12:14:09Z</time>
      </trkpt>
      <trkpt lat="42.994" lon="0.06663">
        <ele>1867.1</ele>
        <time>2018-11-15T12:14:10Z</time>
      </trkpt>
      <trkpt lat="42.99417" lon="0.06659">
        <ele>1857.6</ele>
        <time>2018-11-15T12:14:48Z</time>
      </trkpt>
      <trkpt lat="42.99423" lon="0.06651">
        <ele>1851.9</ele>
        <time>2018-11-15T12:15:02Z</time>
      </trkpt>
      <trkpt lat="42.99432" lon="0.06651">
        <ele>1847.2</ele>
        <time>2018-11-15T12:15:20Z</time>
      </trkpt>
      <trkpt lat="42.99433" lon="0.06651">
        <ele>1847.1</ele>
        <time>2018-11-15T12:15:21Z</time>
      </trkpt>
      <trkpt lat="42.99447" lon="0.0664">
        <ele>1837.6</ele>
        <time>2018-11-15T12:16:00Z</time>
      </trkpt>
      <trkpt lat="42.99454" lon="0.06632">
        <ele>1832.1</ele>
        <time>2018-11-15T12:16:28Z</time>
      </trkpt>
      <trkpt lat="42.99455" lon="0.06632">
        <ele>1831.5</ele>
        <time>2018-11-15T12:16:29Z</time>
      </trkpt>
      <trkpt lat="42.99468" lon="0.06629">
        <ele>1823.4</ele>
        <time>2018-11-15T12:17:12Z</time>
      </trkpt>
      <trkpt lat="42.99476" lon="0.06627">
        <ele>1820.6</ele>
        <time>2018-11-15T12:17:29Z</time>
      </trkpt>
      <trkpt lat="42.99477" lon="0.06627">
        <ele>1820.4</ele>
        <time>2018-11-15T12:17:30Z</time>
      </trkpt>
      <trkpt lat="42.99479" lon="0.06649">
        <ele>1813.3</ele>
        <time>2018-11-15T12:18:27Z</time>
      </trkpt>
      <trkpt lat="42.99482" lon="0.0666">
        <ele>1810.3</ele>
        <time>2018-11-15T12:18:39Z</time>
      </trkpt>
      <trkpt lat="42.99482" lon="0.06661">
        <ele>1809.8</ele>
        <time>2018-11-15T12:18:40Z</time>
      </trkpt>
      <trkpt lat="42.99491" lon="0.06678">
        <ele>1799.3</ele>
        <time>2018-11-15T12:19:14Z</time>
      </trkpt>
      <trkpt lat="42.99496" lon="0.06688">
        <ele>1794</ele>
        <time>2018-11-15T12:19:29Z</time>
      </trkpt>
      <trkpt lat="42.99499" lon="0.06699">
        <ele>1790.3</ele>
        <time>2018-11-15T12:19:44Z</time>
      </trkpt>
      <trkpt lat="42.995" lon="0.06699">
        <ele>1790.3</ele>
        <time>2018-11-15T12:19:45Z</time>
      </trkpt>
      <trkpt lat="42.99495" lon="0.0672">
        <ele>1781.9</ele>
        <time>2018-11-15T12:20:17Z</time>
      </trkpt>
      <trkpt lat="42.995" lon="0.0673">
        <ele>1778.7</ele>
        <time>2018-11-15T12:20:34Z</time>
      </trkpt>
      <trkpt lat="42.99502" lon="0.06742">
        <ele>1773.3</ele>
        <time>2018-11-15T12:20:47Z</time>
      </trkpt>
      <trkpt lat="42.99502" lon="0.06743">
        <ele>1773</ele>
        <time>2018-11-15T12:20:48Z</time>
      </trkpt>
      <trkpt lat="42.99507" lon="0.06764">
        <ele>1766.5</ele>
        <time>2018-11-15T12:21:15Z</time>
      </trkpt>
      <trkpt lat="42.9951" lon="0.06775">
        <ele>1762.6</ele>
        <time>2018-11-15T12:21:30Z</time>
      </trkpt>
      <trkpt lat="42.99514" lon="0.06786">
        <ele>1758.6</ele>
        <time>2018-11-15T12:21:45Z</time>
      </trkpt>
      <trkpt lat="42.99511" lon="0.06796">
        <ele>1754.8</ele>
        <time>2018-11-15T12:22:03Z</time>
      </trkpt>
      <trkpt lat="42.99511" lon="0.06797">
        <ele>1754.1</ele>
        <time>2018-11-15T12:22:04Z</time>
      </trkpt>
      <trkpt lat="42.99517" lon="0.06818">
        <ele>1745.6</ele>
        <time>2018-11-15T12:22:39Z</time>
      </trkpt>
      <trkpt lat="42.99519" lon="0.0683">
        <ele>1739.6</ele>
        <time>2018-11-15T12:22:57Z</time>
      </trkpt>
      <trkpt lat="42.99524" lon="0.0684">
        <ele>1736.2</ele>
        <time>2018-11-15T12:23:11Z</time>
      </trkpt>
      <trkpt lat="42.99524" lon="0.06841">
        <ele>1735.9</ele>
        <time>2018-11-15T12:23:12Z</time>
      </trkpt>
      <trkpt lat="42.99531" lon="0.06861">
        <ele>1728.1</ele>
        <time>2018-11-15T12:23:39Z</time>
      </trkpt>
      <trkpt lat="42.99535" lon="0.06871">
        <ele>1725.9</ele>
        <time>2018-11-15T12:23:50Z</time>
      </trkpt>
      <trkpt lat="42.99537" lon="0.06883">
        <ele>1722</ele>
        <time>2018-11-15T12:24:01Z</time>
      </trkpt>
      <trkpt lat="42.99538" lon="0.06895">
        <ele>1719.5</ele>
        <time>2018-11-15T12:24:10Z</time>
      </trkpt>
      <trkpt lat="42.9954" lon="0.06906">
        <ele>1714.6</ele>
        <time>2018-11-15T12:24:22Z</time>
      </trkpt>
      <trkpt lat="42.99541" lon="0.06907">
        <ele>1714.4</ele>
        <time>2018-11-15T12:24:23Z</time>
      </trkpt>
      <trkpt lat="42.99541" lon="0.06928">
        <ele>1708.6</ele>
        <time>2018-11-15T12:24:42Z</time>
      </trkpt>
      <trkpt lat="42.99545" lon="0.06938">
        <ele>1705.1</ele>
        <time>2018-11-15T12:24:54Z</time>
      </trkpt>
      <trkpt lat="42.99548" lon="0.06949">
        <ele>1702.1</ele>
        <time>2018-11-15T12:25:05Z</time>
      </trkpt>
      <trkpt lat="42.99548" lon="0.06961">
        <ele>1698.5</ele>
        <time>2018-11-15T12:25:17Z</time>
      </trkpt>
      <trkpt lat="42.99546" lon="0.06972">
        <ele>1693.9</ele>
        <time>2018-11-15T12:25:30Z</time>
      </trkpt>
      <trkpt lat="42.99545" lon="0.06974">
        <ele>1693.6</ele>
        <time>2018-11-15T12:25:31Z</time>
      </trkpt>
      <trkpt lat="42.99545" lon="0.06995">
        <ele>1688</ele>
        <time>2018-11-15T12:25:56Z</time>
      </trkpt>
      <trkpt lat="42.99542" lon="0.07007">
        <ele>1683.2</ele>
        <time>2018-11-15T12:26:07Z</time>
      </trkpt>
      <trkpt lat="42.99545" lon="0.07018">
        <ele>1679.4</ele>
        <time>2018-11-15T12:26:21Z</time>
      </trkpt>
      <trkpt lat="42.9955" lon="0.07026">
        <ele>1675</ele>
        <time>2018-11-15T12:26:34Z</time>
      </trkpt>
      <trkpt lat="42.99551" lon="0.07026">
        <ele>1674.6</ele>
        <time>2018-11-15T12:26:35Z</time>
      </trkpt>
      <trkpt lat="42.99554" lon="0.07048">
        <ele>1666.3</ele>
        <time>2018-11-15T12:26:58Z</time>
      </trkpt>
      <trkpt lat="42.99554" lon="0.07059">
        <ele>1663.5</ele>
        <time>2018-11-15T12:27:11Z</time>
      </trkpt>
      <trkpt lat="42.9956" lon="0.07067">
        <ele>1658.5</ele>
        <time>2018-11-15T12:27:23Z</time>
      </trkpt>
      <trkpt lat="42.99559" lon="0.07079">
        <ele>1656.1</ele>
        <time>2018-11-15T12:27:35Z</time>
      </trkpt>
      <trkpt lat="42.99565" lon="0.07089">
        <ele>1651.1</ele>
        <time>2018-11-15T12:27:46Z</time>
      </trkpt>
      <trkpt lat="42.99566" lon="0.07089">
        <ele>1650.7</ele>
        <time>2018-11-15T12:27:47Z</time>
      </trkpt>
      <trkpt lat="42.99572" lon="0.0711">
        <ele>1644.1</ele>
        <time>2018-11-15T12:28:27Z</time>
      </trkpt>
      <trkpt lat="42.99578" lon="0.07118">
        <ele>1640.6</ele>
        <time>2018-11-15T12:28:36Z</time>
      </trkpt>
      <trkpt lat="42.99584" lon="0.07126">
        <ele>1637.7</ele>
        <time>2018-11-15T12:28:45Z</time>
      </trkpt>
      <trkpt lat="42.99589" lon="0.07135">
        <ele>1635.2</ele>
        <time>2018-11-15T12:28:54Z</time>
      </trkpt>
      <trkpt lat="42.9959" lon="0.07136">
        <ele>1634.9</ele>
        <time>2018-11-15T12:28:55Z</time>
      </trkpt>
      <trkpt lat="42.996" lon="0.07151">
        <ele>1629.8</ele>
        <time>2018-11-15T12:29:12Z</time>
      </trkpt>
      <trkpt lat="42.99608" lon="0.07157">
        <ele>1627.9</ele>
        <time>2018-11-15T12:29:21Z</time>
      </trkpt>
      <trkpt lat="42.99616" lon="0.07161">
        <ele>1627.4</ele>
        <time>2018-11-15T12:29:30Z</time>
      </trkpt>
      <trkpt lat="42.99624" lon="0.07164">
        <ele>1624.9</ele>
        <time>2018-11-15T12:29:37Z</time>
      </trkpt>
      <trkpt lat="42.99631" lon="0.0717">
        <ele>1623.2</ele>
        <time>2018-11-15T12:29:45Z</time>
      </trkpt>
      <trkpt lat="42.99636" lon="0.07179">
        <ele>1621.4</ele>
        <time>2018-11-15T12:29:53Z</time>
      </trkpt>
      <trkpt lat="42.99631" lon="0.0719">
        <ele>1619.1</ele>
        <time>2018-11-15T12:30:17Z</time>
      </trkpt>
      <trkpt lat="42.9963" lon="0.07191">
        <ele>1619.1</ele>
        <time>2018-11-15T12:30:18Z</time>
      </trkpt>
      <trkpt lat="42.99631" lon="0.07211">
        <ele>1617.3</ele>
        <time>2018-11-15T12:30:37Z</time>
      </trkpt>
      <trkpt lat="42.99633" lon="0.07223">
        <ele>1614.5</ele>
        <time>2018-11-15T12:30:49Z</time>
      </trkpt>
      <trkpt lat="42.99635" lon="0.07235">
        <ele>1611.8</ele>
        <time>2018-11-15T12:30:59Z</time>
      </trkpt>
      <trkpt lat="42.99641" lon="0.07243">
        <ele>1610</ele>
        <time>2018-11-15T12:31:08Z</time>
      </trkpt>
      <trkpt lat="42.99644" lon="0.07255">
        <ele>1607.5</ele>
        <time>2018-11-15T12:31:21Z</time>
      </trkpt>
      <trkpt lat="42.99644" lon="0.07256">
        <ele>1607.8</ele>
        <time>2018-11-15T12:31:22Z</time>
      </trkpt>
      <trkpt lat="42.9965" lon="0.07276">
        <ele>1603.8</ele>
        <time>2018-11-15T12:31:35Z</time>
      </trkpt>
      <trkpt lat="42.99654" lon="0.07287">
        <ele>1602.5</ele>
        <time>2018-11-15T12:31:43Z</time>
      </trkpt>
      <trkpt lat="42.99658" lon="0.07298">
        <ele>1599.3</ele>
        <time>2018-11-15T12:31:54Z</time>
      </trkpt>
      <trkpt lat="42.99661" lon="0.07309">
        <ele>1595.3</ele>
        <time>2018-11-15T12:32:07Z</time>
      </trkpt>
      <trkpt lat="42.99663" lon="0.0732">
        <ele>1591.8</ele>
        <time>2018-11-15T12:32:17Z</time>
      </trkpt>
      <trkpt lat="42.99664" lon="0.07323">
        <ele>1591.6</ele>
        <time>2018-11-15T12:32:19Z</time>
      </trkpt>
      <trkpt lat="42.99705" lon="0.07698">
        <ele>1566.6</ele>
        <time>2018-11-15T12:38:47Z</time>
      </trkpt>
      <trkpt lat="42.99705" lon="0.07698">
        <ele>1547.8</ele>
        <time>2018-11-15T12:38:48Z</time>
      </trkpt>
      <trkpt lat="42.99677" lon="0.07779">
        <ele>1529</ele>
        <time>2018-11-15T12:40:01Z</time>
      </trkpt>
      <trkpt lat="42.99677" lon="0.07779">
        <ele>1514.9</ele>
        <time>2018-11-15T12:40:02Z</time>
      </trkpt>
      <trkpt lat="42.99672" lon="0.07816">
        <ele>1503.1</ele>
        <time>2018-11-15T12:40:28Z</time>
      </trkpt>
      <trkpt lat="42.99671" lon="0.07818">
        <ele>1494.3</ele>
        <time>2018-11-15T12:40:29Z</time>
      </trkpt>
      <trkpt lat="42.99661" lon="0.07846">
        <ele>1486.4</ele>
        <time>2018-11-15T12:40:49Z</time>
      </trkpt>
      <trkpt lat="42.99659" lon="0.07848">
        <ele>1472.5</ele>
        <time>2018-11-15T12:40:52Z</time>
      </trkpt>
      <trkpt lat="42.99659" lon="0.07864">
        <ele>1469.7</ele>
        <time>2018-11-15T12:41:08Z</time>
      </trkpt>
      <trkpt lat="42.99662" lon="0.07865">
        <ele>1463.7</ele>
        <time>2018-11-15T12:41:14Z</time>
      </trkpt>
      <trkpt lat="42.99676" lon="0.07959">
        <ele>1458.3</ele>
        <time>2018-11-15T12:42:30Z</time>
      </trkpt>
      <trkpt lat="42.99675" lon="0.0797">
        <ele>1439.4</ele>
        <time>2018-11-15T12:42:43Z</time>
      </trkpt>
      <trkpt lat="42.99671" lon="0.0798">
        <ele>1434.4</ele>
        <time>2018-11-15T12:42:55Z</time>
      </trkpt>
      <trkpt lat="42.99667" lon="0.0799">
        <ele>1431.8</ele>
        <time>2018-11-15T12:43:09Z</time>
      </trkpt>
      <trkpt lat="42.99659" lon="0.07993">
        <ele>1428.7</ele>
        <time>2018-11-15T12:43:17Z</time>
      </trkpt>
      <trkpt lat="42.99653" lon="0.07985">
        <ele>1423.1</ele>
        <time>2018-11-15T12:43:39Z</time>
      </trkpt>
      <trkpt lat="42.99652" lon="0.07985">
        <ele>1422.4</ele>
        <time>2018-11-15T12:43:40Z</time>
      </trkpt>
      <trkpt lat="42.99638" lon="0.07988">
        <ele>1417.6</ele>
        <time>2018-11-15T12:44:16Z</time>
      </trkpt>
      <trkpt lat="42.99636" lon="0.08">
        <ele>1416.4</ele>
        <time>2018-11-15T12:44:27Z</time>
      </trkpt>
      <trkpt lat="42.99629" lon="0.08006">
        <ele>1413.5</ele>
        <time>2018-11-15T12:44:36Z</time>
      </trkpt>
      <trkpt lat="42.99622" lon="0.08012">
        <ele>1410.1</ele>
        <time>2018-11-15T12:44:51Z</time>
      </trkpt>
      <trkpt lat="42.99621" lon="0.08012">
        <ele>1410</ele>
        <time>2018-11-15T12:44:52Z</time>
      </trkpt>
      <trkpt lat="42.99608" lon="0.08021">
        <ele>1409.1</ele>
        <time>2018-11-15T12:45:19Z</time>
      </trkpt>
      <trkpt lat="42.99606" lon="0.08033">
        <ele>1407.3</ele>
        <time>2018-11-15T12:45:28Z</time>
      </trkpt>
      <trkpt lat="42.99602" lon="0.08043">
        <ele>1405.1</ele>
        <time>2018-11-15T12:45:35Z</time>
      </trkpt>
      <trkpt lat="42.99598" lon="0.08052">
        <ele>1402.9</ele>
        <time>2018-11-15T12:45:42Z</time>
      </trkpt>
      <trkpt lat="42.99595" lon="0.08062">
        <ele>1402.4</ele>
        <time>2018-11-15T12:45:48Z</time>
      </trkpt>
      <trkpt lat="42.99594" lon="0.08074">
        <ele>1400.5</ele>
        <time>2018-11-15T12:46:16Z</time>
      </trkpt>
      <trkpt lat="42.99594" lon="0.08074">
        <ele>1400.5</ele>
        <time>2018-11-15T12:46:17Z</time>
      </trkpt>
      <trkpt lat="42.99593" lon="0.08096">
        <ele>1399.2</ele>
        <time>2018-11-15T12:47:02Z</time>
      </trkpt>
      <trkpt lat="42.99588" lon="0.08106">
        <ele>1399.2</ele>
        <time>2018-11-15T12:47:10Z</time>
      </trkpt>
      <trkpt lat="42.99583" lon="0.08113">
        <ele>1396.8</ele>
        <time>2018-11-15T12:47:17Z</time>
      </trkpt>
      <trkpt lat="42.99582" lon="0.08115">
        <ele>1396.5</ele>
        <time>2018-11-15T12:47:18Z</time>
      </trkpt>
      <trkpt lat="42.99569" lon="0.08129">
        <ele>1393.2</ele>
        <time>2018-11-15T12:47:33Z</time>
      </trkpt>
      <trkpt lat="42.99563" lon="0.08136">
        <ele>1391.3</ele>
        <time>2018-11-15T12:47:41Z</time>
      </trkpt>
      <trkpt lat="42.99556" lon="0.08142">
        <ele>1388.8</ele>
        <time>2018-11-15T12:47:51Z</time>
      </trkpt>
      <trkpt lat="42.99558" lon="0.08153">
        <ele>1385.4</ele>
        <time>2018-11-15T12:48:22Z</time>
      </trkpt>
      <trkpt lat="42.99559" lon="0.08154">
        <ele>1385.3</ele>
        <time>2018-11-15T12:48:23Z</time>
      </trkpt>
      <trkpt lat="42.99549" lon="0.08174">
        <ele>1381.2</ele>
        <time>2018-11-15T12:48:55Z</time>
      </trkpt>
      <trkpt lat="42.99544" lon="0.08182">
        <ele>1378.7</ele>
        <time>2018-11-15T12:49:02Z</time>
      </trkpt>
      <trkpt lat="42.99537" lon="0.08189">
        <ele>1376.8</ele>
        <time>2018-11-15T12:49:10Z</time>
      </trkpt>
      <trkpt lat="42.99531" lon="0.08198">
        <ele>1375.2</ele>
        <time>2018-11-15T12:49:18Z</time>
      </trkpt>
      <trkpt lat="42.99524" lon="0.08205">
        <ele>1372.6</ele>
        <time>2018-11-15T12:49:28Z</time>
      </trkpt>
      <trkpt lat="42.99524" lon="0.08205">
        <ele>1372.5</ele>
        <time>2018-11-15T12:49:29Z</time>
      </trkpt>
      <trkpt lat="42.99515" lon="0.08222">
        <ele>1371.2</ele>
        <time>2018-11-15T12:49:54Z</time>
      </trkpt>
      <trkpt lat="42.99512" lon="0.08233">
        <ele>1369.6</ele>
        <time>2018-11-15T12:50:01Z</time>
      </trkpt>
      <trkpt lat="42.99507" lon="0.08242">
        <ele>1367.4</ele>
        <time>2018-11-15T12:50:20Z</time>
      </trkpt>
      <trkpt lat="42.99501" lon="0.08251">
        <ele>1366.7</ele>
        <time>2018-11-15T12:50:27Z</time>
      </trkpt>
      <trkpt lat="42.99496" lon="0.08259">
        <ele>1366.2</ele>
        <time>2018-11-15T12:50:33Z</time>
      </trkpt>
      <trkpt lat="42.99495" lon="0.0826">
        <ele>1366</ele>
        <time>2018-11-15T12:50:34Z</time>
      </trkpt>
      <trkpt lat="42.99485" lon="0.08277">
        <ele>1362.8</ele>
        <time>2018-11-15T12:50:46Z</time>
      </trkpt>
      <trkpt lat="42.9948" lon="0.08286">
        <ele>1362.1</ele>
        <time>2018-11-15T12:50:53Z</time>
      </trkpt>
      <trkpt lat="42.99474" lon="0.08295">
        <ele>1361.6</ele>
        <time>2018-11-15T12:51:00Z</time>
      </trkpt>
      <trkpt lat="42.99468" lon="0.08303">
        <ele>1360.2</ele>
        <time>2018-11-15T12:51:07Z</time>
      </trkpt>
      <trkpt lat="42.99462" lon="0.08311">
        <ele>1359.6</ele>
        <time>2018-11-15T12:51:15Z</time>
      </trkpt>
      <trkpt lat="42.99457" lon="0.0832">
        <ele>1358.2</ele>
        <time>2018-11-15T12:51:22Z</time>
      </trkpt>
      <trkpt lat="42.99452" lon="0.08328">
        <ele>1357.4</ele>
        <time>2018-11-15T12:51:29Z</time>
      </trkpt>
      <trkpt lat="42.99449" lon="0.08339">
        <ele>1356.8</ele>
        <time>2018-11-15T12:51:36Z</time>
      </trkpt>
      <trkpt lat="42.99449" lon="0.08341">
        <ele>1356.8</ele>
        <time>2018-11-15T12:51:37Z</time>
      </trkpt>
      <trkpt lat="42.99438" lon="0.08357">
        <ele>1354.7</ele>
        <time>2018-11-15T12:51:53Z</time>
      </trkpt>
      <trkpt lat="42.99433" lon="0.08365">
        <ele>1352.6</ele>
        <time>2018-11-15T12:51:59Z</time>
      </trkpt>
      <trkpt lat="42.99429" lon="0.08374">
        <ele>1351.1</ele>
        <time>2018-11-15T12:52:04Z</time>
      </trkpt>
      <trkpt lat="42.99423" lon="0.08383">
        <ele>1350.3</ele>
        <time>2018-11-15T12:52:10Z</time>
      </trkpt>
      <trkpt lat="42.99418" lon="0.08392">
        <ele>1348.5</ele>
        <time>2018-11-15T12:52:19Z</time>
      </trkpt>
      <trkpt lat="42.99415" lon="0.08403">
        <ele>1344</ele>
        <time>2018-11-15T12:52:31Z</time>
      </trkpt>
      <trkpt lat="42.9941" lon="0.08412">
        <ele>1341.2</ele>
        <time>2018-11-15T12:52:40Z</time>
      </trkpt>
      <trkpt lat="42.9941" lon="0.08414">
        <ele>1340.8</ele>
        <time>2018-11-15T12:52:41Z</time>
      </trkpt>
      <trkpt lat="42.99403" lon="0.08433">
        <ele>1336.5</ele>
        <time>2018-11-15T12:52:55Z</time>
      </trkpt>
      <trkpt lat="42.99399" lon="0.08442">
        <ele>1334.7</ele>
        <time>2018-11-15T12:53:01Z</time>
      </trkpt>
      <trkpt lat="42.99394" lon="0.08453">
        <ele>1333.1</ele>
        <time>2018-11-15T12:53:08Z</time>
      </trkpt>
      <trkpt lat="42.9939" lon="0.08462">
        <ele>1331.9</ele>
        <time>2018-11-15T12:53:14Z</time>
      </trkpt>
      <trkpt lat="42.99386" lon="0.08473">
        <ele>1330.9</ele>
        <time>2018-11-15T12:53:20Z</time>
      </trkpt>
      <trkpt lat="42.99382" lon="0.08483">
        <ele>1329.3</ele>
        <time>2018-11-15T12:53:26Z</time>
      </trkpt>
      <trkpt lat="42.99379" lon="0.08495">
        <ele>1327.3</ele>
        <time>2018-11-15T12:53:32Z</time>
      </trkpt>
      <trkpt lat="42.99374" lon="0.08504">
        <ele>1326</ele>
        <time>2018-11-15T12:53:38Z</time>
      </trkpt>
      <trkpt lat="42.99369" lon="0.08513">
        <ele>1324.5</ele>
        <time>2018-11-15T12:53:44Z</time>
      </trkpt>
      <trkpt lat="42.99368" lon="0.08514">
        <ele>1324.4</ele>
        <time>2018-11-15T12:53:45Z</time>
      </trkpt>
      <trkpt lat="42.99356" lon="0.08528">
        <ele>1322.2</ele>
        <time>2018-11-15T12:53:58Z</time>
      </trkpt>
      <trkpt lat="42.99351" lon="0.08538">
        <ele>1320.7</ele>
        <time>2018-11-15T12:54:04Z</time>
      </trkpt>
      <trkpt lat="42.99347" lon="0.08547">
        <ele>1319.2</ele>
        <time>2018-11-15T12:54:10Z</time>
      </trkpt>
      <trkpt lat="42.99344" lon="0.08558">
        <ele>1316.6</ele>
        <time>2018-11-15T12:54:16Z</time>
      </trkpt>
      <trkpt lat="42.99339" lon="0.08568">
        <ele>1315</ele>
        <time>2018-11-15T12:54:22Z</time>
      </trkpt>
      <trkpt lat="42.99335" lon="0.08578">
        <ele>1314.2</ele>
        <time>2018-11-15T12:54:28Z</time>
      </trkpt>
      <trkpt lat="42.9933" lon="0.08588">
        <ele>1312.6</ele>
        <time>2018-11-15T12:54:34Z</time>
      </trkpt>
      <trkpt lat="42.99325" lon="0.08598">
        <ele>1311.5</ele>
        <time>2018-11-15T12:54:40Z</time>
      </trkpt>
      <trkpt lat="42.9932" lon="0.08607">
        <ele>1310.8</ele>
        <time>2018-11-15T12:54:46Z</time>
      </trkpt>
      <trkpt lat="42.9932" lon="0.08609">
        <ele>1310.8</ele>
        <time>2018-11-15T12:54:47Z</time>
      </trkpt>
      <trkpt lat="42.99312" lon="0.08626">
        <ele>1309.6</ele>
        <time>2018-11-15T12:54:58Z</time>
      </trkpt>
      <trkpt lat="42.99307" lon="0.08635">
        <ele>1308.3</ele>
        <time>2018-11-15T12:55:04Z</time>
      </trkpt>
      <trkpt lat="42.99304" lon="0.08646">
        <ele>1306.8</ele>
        <time>2018-11-15T12:55:11Z</time>
      </trkpt>
      <trkpt lat="42.99301" lon="0.08656">
        <ele>1305.9</ele>
        <time>2018-11-15T12:55:17Z</time>
      </trkpt>
      <trkpt lat="42.99296" lon="0.08665">
        <ele>1303.3</ele>
        <time>2018-11-15T12:55:23Z</time>
      </trkpt>
      <trkpt lat="42.99293" lon="0.08675">
        <ele>1302</ele>
        <time>2018-11-15T12:55:29Z</time>
      </trkpt>
      <trkpt lat="42.99294" lon="0.08686">
        <ele>1299.9</ele>
        <time>2018-11-15T12:55:37Z</time>
      </trkpt>
      <trkpt lat="42.99296" lon="0.08698">
        <ele>1298.6</ele>
        <time>2018-11-15T12:55:46Z</time>
      </trkpt>
      <trkpt lat="42.99287" lon="0.08699">
        <ele>1296.1</ele>
        <time>2018-11-15T12:55:56Z</time>
      </trkpt>
      <trkpt lat="42.99287" lon="0.08698">
        <ele>1295.4</ele>
        <time>2018-11-15T12:55:57Z</time>
      </trkpt>
      <trkpt lat="42.99279" lon="0.08715">
        <ele>1292.8</ele>
        <time>2018-11-15T12:56:11Z</time>
      </trkpt>
      <trkpt lat="42.99279" lon="0.08727">
        <ele>1291.4</ele>
        <time>2018-11-15T12:56:17Z</time>
      </trkpt>
      <trkpt lat="42.9928" lon="0.08738">
        <ele>1290.8</ele>
        <time>2018-11-15T12:56:24Z</time>
      </trkpt>
      <trkpt lat="42.99278" lon="0.0875">
        <ele>1290.1</ele>
        <time>2018-11-15T12:56:32Z</time>
      </trkpt>
      <trkpt lat="42.99274" lon="0.08759">
        <ele>1290.4</ele>
        <time>2018-11-15T12:56:39Z</time>
      </trkpt>
      <trkpt lat="42.99268" lon="0.08768">
        <ele>1289.7</ele>
        <time>2018-11-15T12:56:46Z</time>
      </trkpt>
      <trkpt lat="42.99262" lon="0.08775">
        <ele>1290.2</ele>
        <time>2018-11-15T12:56:53Z</time>
      </trkpt>
      <trkpt lat="42.99255" lon="0.08781">
        <ele>1290.2</ele>
        <time>2018-11-15T12:56:59Z</time>
      </trkpt>
      <trkpt lat="42.99254" lon="0.08782">
        <ele>1290</ele>
        <time>2018-11-15T12:57:00Z</time>
      </trkpt>
      <trkpt lat="42.99244" lon="0.08797">
        <ele>1289.3</ele>
        <time>2018-11-15T12:57:10Z</time>
      </trkpt>
      <trkpt lat="42.99238" lon="0.08805">
        <ele>1289.3</ele>
        <time>2018-11-15T12:57:16Z</time>
      </trkpt>
      <trkpt lat="42.99232" lon="0.08814">
        <ele>1289.6</ele>
        <time>2018-11-15T12:57:23Z</time>
      </trkpt>
      <trkpt lat="42.99225" lon="0.0882">
        <ele>1289</ele>
        <time>2018-11-15T12:57:29Z</time>
      </trkpt>
      <trkpt lat="42.99219" lon="0.08826">
        <ele>1288.4</ele>
        <time>2018-11-15T12:57:35Z</time>
      </trkpt>
      <trkpt lat="42.99212" lon="0.08834">
        <ele>1287</ele>
        <time>2018-11-15T12:57:41Z</time>
      </trkpt>
      <trkpt lat="42.99207" lon="0.08842">
        <ele>1285.7</ele>
        <time>2018-11-15T12:57:46Z</time>
      </trkpt>
      <trkpt lat="42.99203" lon="0.08851">
        <ele>1284</ele>
        <time>2018-11-15T12:57:51Z</time>
      </trkpt>
      <trkpt lat="42.99199" lon="0.08861">
        <ele>1282.2</ele>
        <time>2018-11-15T12:57:57Z</time>
      </trkpt>
      <trkpt lat="42.99196" lon="0.08872">
        <ele>1280.5</ele>
        <time>2018-11-15T12:58:04Z</time>
      </trkpt>
      <trkpt lat="42.99195" lon="0.08873">
        <ele>1280.4</ele>
        <time>2018-11-15T12:58:05Z</time>
      </trkpt>
      <trkpt lat="42.99186" lon="0.0889">
        <ele>1276.6</ele>
        <time>2018-11-15T12:58:19Z</time>
      </trkpt>
      <trkpt lat="42.99182" lon="0.089">
        <ele>1275.1</ele>
        <time>2018-11-15T12:58:26Z</time>
      </trkpt>
      <trkpt lat="42.99178" lon="0.0891">
        <ele>1273.2</ele>
        <time>2018-11-15T12:58:34Z</time>
      </trkpt>
      <trkpt lat="42.99176" lon="0.08921">
        <ele>1271.9</ele>
        <time>2018-11-15T12:58:40Z</time>
      </trkpt>
      <trkpt lat="42.99173" lon="0.0893">
        <ele>1271</ele>
        <time>2018-11-15T12:58:45Z</time>
      </trkpt>
      <trkpt lat="42.99168" lon="0.08939">
        <ele>1270</ele>
        <time>2018-11-15T12:58:50Z</time>
      </trkpt>
      <trkpt lat="42.99166" lon="0.08949">
        <ele>1269.4</ele>
        <time>2018-11-15T12:58:55Z</time>
      </trkpt>
      <trkpt lat="42.99164" lon="0.08961">
        <ele>1267.6</ele>
        <time>2018-11-15T12:59:01Z</time>
      </trkpt>
      <trkpt lat="42.99164" lon="0.08972">
        <ele>1264.5</ele>
        <time>2018-11-15T12:59:07Z</time>
      </trkpt>
      <trkpt lat="42.99164" lon="0.08974">
        <ele>1264.2</ele>
        <time>2018-11-15T12:59:08Z</time>
      </trkpt>
      <trkpt lat="42.99166" lon="0.08994">
        <ele>1261.8</ele>
        <time>2018-11-15T12:59:21Z</time>
      </trkpt>
      <trkpt lat="42.9917" lon="0.09005">
        <ele>1260</ele>
        <time>2018-11-15T12:59:29Z</time>
      </trkpt>
      <trkpt lat="42.99173" lon="0.09015">
        <ele>1258</ele>
        <time>2018-11-15T12:59:38Z</time>
      </trkpt>
      <trkpt lat="42.99176" lon="0.09026">
        <ele>1254.2</ele>
        <time>2018-11-15T12:59:48Z</time>
      </trkpt>
      <trkpt lat="42.99176" lon="0.09037">
        <ele>1252.7</ele>
        <time>2018-11-15T12:59:56Z</time>
      </trkpt>
      <trkpt lat="42.99176" lon="0.09049">
        <ele>1250.1</ele>
        <time>2018-11-15T13:00:03Z</time>
      </trkpt>
      <trkpt lat="42.99173" lon="0.09061">
        <ele>1249.5</ele>
        <time>2018-11-15T13:00:12Z</time>
      </trkpt>
      <trkpt lat="42.99173" lon="0.09062">
        <ele>1249.1</ele>
        <time>2018-11-15T13:00:13Z</time>
      </trkpt>
      <trkpt lat="42.99172" lon="0.09083">
        <ele>1245.4</ele>
        <time>2018-11-15T13:00:27Z</time>
      </trkpt>
      <trkpt lat="42.99176" lon="0.09094">
        <ele>1241.6</ele>
        <time>2018-11-15T13:00:36Z</time>
      </trkpt>
      <trkpt lat="42.9918" lon="0.09105">
        <ele>1239.6</ele>
        <time>2018-11-15T13:00:43Z</time>
      </trkpt>
      <trkpt lat="42.99184" lon="0.09116">
        <ele>1236.6</ele>
        <time>2018-11-15T13:00:52Z</time>
      </trkpt>
      <trkpt lat="42.99187" lon="0.09127">
        <ele>1234.9</ele>
        <time>2018-11-15T13:00:59Z</time>
      </trkpt>
      <trkpt lat="42.99189" lon="0.09138">
        <ele>1232.8</ele>
        <time>2018-11-15T13:01:05Z</time>
      </trkpt>
      <trkpt lat="42.99191" lon="0.0915">
        <ele>1230.3</ele>
        <time>2018-11-15T13:01:12Z</time>
      </trkpt>
      <trkpt lat="42.99194" lon="0.09161">
        <ele>1227.5</ele>
        <time>2018-11-15T13:01:19Z</time>
      </trkpt>
      <trkpt lat="42.99194" lon="0.09163">
        <ele>1227.1</ele>
        <time>2018-11-15T13:01:20Z</time>
      </trkpt>
      <trkpt lat="42.99195" lon="0.09183">
        <ele>1222.7</ele>
        <time>2018-11-15T13:01:32Z</time>
      </trkpt>
      <trkpt lat="42.99196" lon="0.09195">
        <ele>1220.2</ele>
        <time>2018-11-15T13:01:38Z</time>
      </trkpt>
      <trkpt lat="42.99195" lon="0.09207">
        <ele>1218.7</ele>
        <time>2018-11-15T13:01:44Z</time>
      </trkpt>
      <trkpt lat="42.99191" lon="0.09216">
        <ele>1217.2</ele>
        <time>2018-11-15T13:01:49Z</time>
      </trkpt>
      <trkpt lat="42.99187" lon="0.09226">
        <ele>1216.3</ele>
        <time>2018-11-15T13:01:54Z</time>
      </trkpt>
      <trkpt lat="42.99183" lon="0.09236">
        <ele>1215</ele>
        <time>2018-11-15T13:01:59Z</time>
      </trkpt>
      <trkpt lat="42.99179" lon="0.09246">
        <ele>1214.1</ele>
        <time>2018-11-15T13:02:06Z</time>
      </trkpt>
      <trkpt lat="42.99178" lon="0.09258">
        <ele>1212</ele>
        <time>2018-11-15T13:02:14Z</time>
      </trkpt>
      <trkpt lat="42.99175" lon="0.09269">
        <ele>1209.9</ele>
        <time>2018-11-15T13:02:30Z</time>
      </trkpt>
      <trkpt lat="42.99174" lon="0.0927">
        <ele>1209.7</ele>
        <time>2018-11-15T13:02:31Z</time>
      </trkpt>
      <trkpt lat="42.99174" lon="0.09292">
        <ele>1204</ele>
        <time>2018-11-15T13:02:55Z</time>
      </trkpt>
      <trkpt lat="42.99173" lon="0.09304">
        <ele>1201.2</ele>
        <time>2018-11-15T13:03:04Z</time>
      </trkpt>
      <trkpt lat="42.99172" lon="0.09314">
        <ele>1198.9</ele>
        <time>2018-11-15T13:03:12Z</time>
      </trkpt>
      <trkpt lat="42.99171" lon="0.09325">
        <ele>1197.8</ele>
        <time>2018-11-15T13:03:18Z</time>
      </trkpt>
      <trkpt lat="42.99169" lon="0.09336">
        <ele>1196</ele>
        <time>2018-11-15T13:03:25Z</time>
      </trkpt>
      <trkpt lat="42.99167" lon="0.09347">
        <ele>1194.6</ele>
        <time>2018-11-15T13:03:32Z</time>
      </trkpt>
      <trkpt lat="42.99167" lon="0.09349">
        <ele>1194.4</ele>
        <time>2018-11-15T13:03:33Z</time>
      </trkpt>
      <trkpt lat="42.99163" lon="0.09369">
        <ele>1189.9</ele>
        <time>2018-11-15T13:03:47Z</time>
      </trkpt>
      <trkpt lat="42.99165" lon="0.09381">
        <ele>1187.5</ele>
        <time>2018-11-15T13:03:55Z</time>
      </trkpt>
      <trkpt lat="42.9917" lon="0.09391">
        <ele>1184.4</ele>
        <time>2018-11-15T13:04:05Z</time>
      </trkpt>
      <trkpt lat="42.99172" lon="0.09402">
        <ele>1182.1</ele>
        <time>2018-11-15T13:04:12Z</time>
      </trkpt>
      <trkpt lat="42.99175" lon="0.09412">
        <ele>1180.1</ele>
        <time>2018-11-15T13:04:19Z</time>
      </trkpt>
      <trkpt lat="42.99176" lon="0.09424">
        <ele>1177.8</ele>
        <time>2018-11-15T13:04:26Z</time>
      </trkpt>
      <trkpt lat="42.9918" lon="0.09435">
        <ele>1176.6</ele>
        <time>2018-11-15T13:04:32Z</time>
      </trkpt>
      <trkpt lat="42.99184" lon="0.09445">
        <ele>1173.8</ele>
        <time>2018-11-15T13:04:38Z</time>
      </trkpt>
      <trkpt lat="42.99185" lon="0.09447">
        <ele>1173.5</ele>
        <time>2018-11-15T13:04:39Z</time>
      </trkpt>
      <trkpt lat="42.99189" lon="0.09468">
        <ele>1170</ele>
        <time>2018-11-15T13:04:51Z</time>
      </trkpt>
      <trkpt lat="42.99191" lon="0.09479">
        <ele>1168.2</ele>
        <time>2018-11-15T13:04:58Z</time>
      </trkpt>
      <trkpt lat="42.99191" lon="0.09491">
        <ele>1166.9</ele>
        <time>2018-11-15T13:05:04Z</time>
      </trkpt>
      <trkpt lat="42.99193" lon="0.09502">
        <ele>1165</ele>
        <time>2018-11-15T13:05:12Z</time>
      </trkpt>
      <trkpt lat="42.99193" lon="0.09514">
        <ele>1163.4</ele>
        <time>2018-11-15T13:05:21Z</time>
      </trkpt>
      <trkpt lat="42.9919" lon="0.09526">
        <ele>1162.2</ele>
        <time>2018-11-15T13:05:33Z</time>
      </trkpt>
      <trkpt lat="42.99184" lon="0.09535">
        <ele>1160.8</ele>
        <time>2018-11-15T13:06:36Z</time>
      </trkpt>
      <trkpt lat="42.99183" lon="0.09536">
        <ele>1161</ele>
        <time>2018-11-15T13:06:37Z</time>
      </trkpt>
      <trkpt lat="42.99178" lon="0.09534">
        <ele>1160.4</ele>
        <time>2018-11-15T13:07:42Z</time>
      </trkpt>
      <trkpt lat="42.99178" lon="0.09534">
        <ele>1160.4</ele>
        <time>2018-11-15T13:07:42Z</time>
      </trkpt>
    </trkseg>
  </trk>
</gpx>